<?xml version="1.0" encoding="UTF-8" standalone="no" ?>
<gpx xmlns="http://www.topografix.com/GPX/1/1" xmlns:xsi="http://www.w3.org/2001/XMLSchema-instance" xsi:schemaLocation="http://www.topografix.com/GPX/1/1 http://www.topografix.com/GPX/1/1/gpx.xsd" version="1.1" creator="VisuGPX - https://www.visugpx.com">
  <metadata>
    <name>Boucle avec Batou en bât</name>
    <desc><![CDATA[A trois, dont Batou en bât avec un galop]]></desc>
  </metadata>
  <trk>
    <name><![CDATA[boucle avec Batou en bât]]></name>
    <trkseg>
      <trkpt lat="48.70645" lon="1.75614">
        <ele>177.19999694824</ele>
        <time>2013-06-25T08:06:38.000Z</time>
      </trkpt>
      <trkpt lat="48.70644" lon="1.75624">
        <ele>177.39999389648</ele>
        <time>2013-06-25T08:06:43.000Z</time>
      </trkpt>
      <trkpt lat="48.70644" lon="1.75629">
        <ele>177.39999389648</ele>
        <time>2013-06-25T08:06:46.000Z</time>
      </trkpt>
      <trkpt lat="48.70641" lon="1.7564">
        <ele>177.80000305176</ele>
        <time>2013-06-25T08:06:53.000Z</time>
      </trkpt>
      <trkpt lat="48.70637" lon="1.75646">
        <ele>178.19999694824</ele>
        <time>2013-06-25T08:06:58.000Z</time>
      </trkpt>
      <trkpt lat="48.7063" lon="1.75643">
        <ele>179</ele>
        <time>2013-06-25T08:07:05.000Z</time>
      </trkpt>
      <trkpt lat="48.70622" lon="1.75632">
        <ele>179.80000305176</ele>
        <time>2013-06-25T08:07:13.000Z</time>
      </trkpt>
      <trkpt lat="48.70616" lon="1.75626">
        <ele>180.39999389648</ele>
        <time>2013-06-25T08:07:18.000Z</time>
      </trkpt>
      <trkpt lat="48.70609" lon="1.75621">
        <ele>181</ele>
        <time>2013-06-25T08:07:24.000Z</time>
      </trkpt>
      <trkpt lat="48.70606" lon="1.75615">
        <ele>181.19999694824</ele>
        <time>2013-06-25T08:07:28.000Z</time>
      </trkpt>
      <trkpt lat="48.70602" lon="1.7561">
        <ele>181.60000610352</ele>
        <time>2013-06-25T08:07:32.000Z</time>
      </trkpt>
      <trkpt lat="48.70596" lon="1.75599">
        <ele>182</ele>
        <time>2013-06-25T08:07:39.000Z</time>
      </trkpt>
      <trkpt lat="48.7059" lon="1.7559">
        <ele>182.39999389648</ele>
        <time>2013-06-25T08:07:46.000Z</time>
      </trkpt>
      <trkpt lat="48.70584" lon="1.75582">
        <ele>182.60000610352</ele>
        <time>2013-06-25T08:07:51.000Z</time>
      </trkpt>
      <trkpt lat="48.70582" lon="1.7558">
        <ele>182.60000610352</ele>
        <time>2013-06-25T08:07:53.000Z</time>
      </trkpt>
      <trkpt lat="48.70574" lon="1.7557">
        <ele>181.80000305176</ele>
        <time>2013-06-25T08:08:01.000Z</time>
      </trkpt>
      <trkpt lat="48.70564" lon="1.75562">
        <ele>181.39999389648</ele>
        <time>2013-06-25T08:08:08.000Z</time>
      </trkpt>
      <trkpt lat="48.70554" lon="1.75552">
        <ele>181</ele>
        <time>2013-06-25T08:08:15.000Z</time>
      </trkpt>
      <trkpt lat="48.70553" lon="1.75549">
        <ele>180.60000610352</ele>
        <time>2013-06-25T08:08:20.000Z</time>
      </trkpt>
      <trkpt lat="48.70544" lon="1.75544">
        <ele>180.60000610352</ele>
        <time>2013-06-25T08:08:33.000Z</time>
      </trkpt>
      <trkpt lat="48.70535" lon="1.75531">
        <ele>180.19999694824</ele>
        <time>2013-06-25T08:08:37.000Z</time>
      </trkpt>
      <trkpt lat="48.70533" lon="1.75527">
        <ele>180</ele>
        <time>2013-06-25T08:08:40.000Z</time>
      </trkpt>
      <trkpt lat="48.70529" lon="1.75523">
        <ele>180</ele>
        <time>2013-06-25T08:08:44.000Z</time>
      </trkpt>
      <trkpt lat="48.70525" lon="1.75518">
        <ele>180</ele>
        <time>2013-06-25T08:08:48.000Z</time>
      </trkpt>
      <trkpt lat="48.70519" lon="1.75513">
        <ele>180.19999694824</ele>
        <time>2013-06-25T08:08:53.000Z</time>
      </trkpt>
      <trkpt lat="48.70512" lon="1.75505">
        <ele>180.19999694824</ele>
        <time>2013-06-25T08:09:00.000Z</time>
      </trkpt>
      <trkpt lat="48.70504" lon="1.75496">
        <ele>180.39999389648</ele>
        <time>2013-06-25T08:09:07.000Z</time>
      </trkpt>
      <trkpt lat="48.70494" lon="1.75489">
        <ele>180.39999389648</ele>
        <time>2013-06-25T08:09:14.000Z</time>
      </trkpt>
      <trkpt lat="48.70485" lon="1.75481">
        <ele>180.39999389648</ele>
        <time>2013-06-25T08:09:21.000Z</time>
      </trkpt>
      <trkpt lat="48.7048" lon="1.75474">
        <ele>180.19999694824</ele>
        <time>2013-06-25T08:09:26.000Z</time>
      </trkpt>
      <trkpt lat="48.70471" lon="1.75465">
        <ele>180.19999694824</ele>
        <time>2013-06-25T08:09:33.000Z</time>
      </trkpt>
      <trkpt lat="48.70461" lon="1.75454">
        <ele>180.39999389648</ele>
        <time>2013-06-25T08:09:41.000Z</time>
      </trkpt>
      <trkpt lat="48.70455" lon="1.7545">
        <ele>180.39999389648</ele>
        <time>2013-06-25T08:09:45.000Z</time>
      </trkpt>
      <trkpt lat="48.7045" lon="1.75447">
        <ele>180.60000610352</ele>
        <time>2013-06-25T08:09:49.000Z</time>
      </trkpt>
      <trkpt lat="48.70437" lon="1.75439">
        <ele>181.19999694824</ele>
        <time>2013-06-25T08:09:58.000Z</time>
      </trkpt>
      <trkpt lat="48.70429" lon="1.75432">
        <ele>181.60000610352</ele>
        <time>2013-06-25T08:10:04.000Z</time>
      </trkpt>
      <trkpt lat="48.70421" lon="1.75425">
        <ele>181.80000305176</ele>
        <time>2013-06-25T08:10:10.000Z</time>
      </trkpt>
      <trkpt lat="48.70413" lon="1.75421">
        <ele>182</ele>
        <time>2013-06-25T08:10:16.000Z</time>
      </trkpt>
      <trkpt lat="48.70405" lon="1.75414">
        <ele>181.60000610352</ele>
        <time>2013-06-25T08:10:23.000Z</time>
      </trkpt>
      <trkpt lat="48.70397" lon="1.75409">
        <ele>181.39999389648</ele>
        <time>2013-06-25T08:10:29.000Z</time>
      </trkpt>
      <trkpt lat="48.70391" lon="1.75405">
        <ele>181.19999694824</ele>
        <time>2013-06-25T08:10:33.000Z</time>
      </trkpt>
      <trkpt lat="48.70382" lon="1.75403">
        <ele>181</ele>
        <time>2013-06-25T08:10:39.000Z</time>
      </trkpt>
      <trkpt lat="48.70373" lon="1.75397">
        <ele>181</ele>
        <time>2013-06-25T08:10:46.000Z</time>
      </trkpt>
      <trkpt lat="48.70364" lon="1.75391">
        <ele>180.80000305176</ele>
        <time>2013-06-25T08:10:53.000Z</time>
      </trkpt>
      <trkpt lat="48.70357" lon="1.75383">
        <ele>180.80000305176</ele>
        <time>2013-06-25T08:11:00.000Z</time>
      </trkpt>
      <trkpt lat="48.70348" lon="1.75373">
        <ele>180.80000305176</ele>
        <time>2013-06-25T08:11:07.000Z</time>
      </trkpt>
      <trkpt lat="48.70341" lon="1.75367">
        <ele>180.80000305176</ele>
        <time>2013-06-25T08:11:13.000Z</time>
      </trkpt>
      <trkpt lat="48.70333" lon="1.75359">
        <ele>180.80000305176</ele>
        <time>2013-06-25T08:11:19.000Z</time>
      </trkpt>
      <trkpt lat="48.70326" lon="1.75355">
        <ele>180.60000610352</ele>
        <time>2013-06-25T08:11:24.000Z</time>
      </trkpt>
      <trkpt lat="48.70318" lon="1.75348">
        <ele>180.60000610352</ele>
        <time>2013-06-25T08:11:30.000Z</time>
      </trkpt>
      <trkpt lat="48.70312" lon="1.75336">
        <ele>180.39999389648</ele>
        <time>2013-06-25T08:11:36.000Z</time>
      </trkpt>
      <trkpt lat="48.70309" lon="1.75324">
        <ele>180.39999389648</ele>
        <time>2013-06-25T08:11:42.000Z</time>
      </trkpt>
      <trkpt lat="48.70304" lon="1.75313">
        <ele>180.39999389648</ele>
        <time>2013-06-25T08:11:47.000Z</time>
      </trkpt>
      <trkpt lat="48.70291" lon="1.75297">
        <ele>180.39999389648</ele>
        <time>2013-06-25T08:11:56.000Z</time>
      </trkpt>
      <trkpt lat="48.70289" lon="1.75294">
        <ele>180.39999389648</ele>
        <time>2013-06-25T08:11:58.000Z</time>
      </trkpt>
      <trkpt lat="48.70277" lon="1.7529">
        <ele>180</ele>
        <time>2013-06-25T08:12:06.000Z</time>
      </trkpt>
      <trkpt lat="48.70275" lon="1.75287">
        <ele>180</ele>
        <time>2013-06-25T08:12:08.000Z</time>
      </trkpt>
      <trkpt lat="48.70266" lon="1.75281">
        <ele>180</ele>
        <time>2013-06-25T08:12:15.000Z</time>
      </trkpt>
      <trkpt lat="48.70259" lon="1.75275">
        <ele>179.80000305176</ele>
        <time>2013-06-25T08:12:20.000Z</time>
      </trkpt>
      <trkpt lat="48.70257" lon="1.75271">
        <ele>179.80000305176</ele>
        <time>2013-06-25T08:12:22.000Z</time>
      </trkpt>
      <trkpt lat="48.70248" lon="1.7526">
        <ele>179.60000610352</ele>
        <time>2013-06-25T08:12:30.000Z</time>
      </trkpt>
      <trkpt lat="48.70239" lon="1.75253">
        <ele>179.39999389648</ele>
        <time>2013-06-25T08:12:36.000Z</time>
      </trkpt>
      <trkpt lat="48.7023" lon="1.75248">
        <ele>179</ele>
        <time>2013-06-25T08:12:42.000Z</time>
      </trkpt>
      <trkpt lat="48.70219" lon="1.75243">
        <ele>178.39999389648</ele>
        <time>2013-06-25T08:12:50.000Z</time>
      </trkpt>
      <trkpt lat="48.70214" lon="1.75243">
        <ele>178.19999694824</ele>
        <time>2013-06-25T08:12:53.000Z</time>
      </trkpt>
      <trkpt lat="48.70207" lon="1.75241">
        <ele>177.80000305176</ele>
        <time>2013-06-25T08:12:58.000Z</time>
      </trkpt>
      <trkpt lat="48.70206" lon="1.75242">
        <ele>177.80000305176</ele>
        <time>2013-06-25T08:12:59.000Z</time>
      </trkpt>
      <trkpt lat="48.70189" lon="1.75252">
        <ele>177</ele>
        <time>2013-06-25T08:13:09.000Z</time>
      </trkpt>
      <trkpt lat="48.70188" lon="1.75253">
        <ele>177</ele>
        <time>2013-06-25T08:13:10.000Z</time>
      </trkpt>
      <trkpt lat="48.70178" lon="1.75256">
        <ele>176.39999389648</ele>
        <time>2013-06-25T08:13:16.000Z</time>
      </trkpt>
      <trkpt lat="48.70171" lon="1.75257">
        <ele>176.19999694824</ele>
        <time>2013-06-25T08:13:21.000Z</time>
      </trkpt>
      <trkpt lat="48.70163" lon="1.75259">
        <ele>175.80000305176</ele>
        <time>2013-06-25T08:13:28.000Z</time>
      </trkpt>
      <trkpt lat="48.70159" lon="1.7527">
        <ele>175.80000305176</ele>
        <time>2013-06-25T08:13:34.000Z</time>
      </trkpt>
      <trkpt lat="48.70152" lon="1.75277">
        <ele>175.80000305176</ele>
        <time>2013-06-25T08:13:40.000Z</time>
      </trkpt>
      <trkpt lat="48.70147" lon="1.75281">
        <ele>175.60000610352</ele>
        <time>2013-06-25T08:13:43.000Z</time>
      </trkpt>
      <trkpt lat="48.70136" lon="1.75283">
        <ele>175.39999389648</ele>
        <time>2013-06-25T08:13:49.000Z</time>
      </trkpt>
      <trkpt lat="48.70129" lon="1.75285">
        <ele>175.39999389648</ele>
        <time>2013-06-25T08:13:54.000Z</time>
      </trkpt>
      <trkpt lat="48.70121" lon="1.75289">
        <ele>175.19999694824</ele>
        <time>2013-06-25T08:14:01.000Z</time>
      </trkpt>
      <trkpt lat="48.70112" lon="1.75292">
        <ele>175</ele>
        <time>2013-06-25T08:14:07.000Z</time>
      </trkpt>
      <trkpt lat="48.70105" lon="1.75296">
        <ele>174.60000610352</ele>
        <time>2013-06-25T08:14:13.000Z</time>
      </trkpt>
      <trkpt lat="48.70099" lon="1.753">
        <ele>174.39999389648</ele>
        <time>2013-06-25T08:14:17.000Z</time>
      </trkpt>
      <trkpt lat="48.70092" lon="1.75303">
        <ele>174.19999694824</ele>
        <time>2013-06-25T08:14:21.000Z</time>
      </trkpt>
      <trkpt lat="48.70083" lon="1.75307">
        <ele>173.80000305176</ele>
        <time>2013-06-25T08:14:26.000Z</time>
      </trkpt>
      <trkpt lat="48.70075" lon="1.75311">
        <ele>173.60000610352</ele>
        <time>2013-06-25T08:14:32.000Z</time>
      </trkpt>
      <trkpt lat="48.70065" lon="1.75316">
        <ele>173.19999694824</ele>
        <time>2013-06-25T08:14:39.000Z</time>
      </trkpt>
      <trkpt lat="48.70063" lon="1.75318">
        <ele>173.19999694824</ele>
        <time>2013-06-25T08:14:40.000Z</time>
      </trkpt>
      <trkpt lat="48.70056" lon="1.75321">
        <ele>173</ele>
        <time>2013-06-25T08:14:46.000Z</time>
      </trkpt>
      <trkpt lat="48.70048" lon="1.75324">
        <ele>172.80000305176</ele>
        <time>2013-06-25T08:14:51.000Z</time>
      </trkpt>
      <trkpt lat="48.70039" lon="1.75325">
        <ele>172.60000610352</ele>
        <time>2013-06-25T08:14:58.000Z</time>
      </trkpt>
      <trkpt lat="48.70036" lon="1.75328">
        <ele>172.39999389648</ele>
        <time>2013-06-25T08:15:00.000Z</time>
      </trkpt>
      <trkpt lat="48.70035" lon="1.75329">
        <ele>172.39999389648</ele>
        <time>2013-06-25T08:15:04.000Z</time>
      </trkpt>
      <trkpt lat="48.70029" lon="1.75334">
        <ele>172.19999694824</ele>
        <time>2013-06-25T08:15:20.000Z</time>
      </trkpt>
      <trkpt lat="48.70023" lon="1.75336">
        <ele>172</ele>
        <time>2013-06-25T08:15:24.000Z</time>
      </trkpt>
      <trkpt lat="48.70014" lon="1.7534">
        <ele>171.80000305176</ele>
        <time>2013-06-25T08:15:30.000Z</time>
      </trkpt>
      <trkpt lat="48.70006" lon="1.75343">
        <ele>171.60000610352</ele>
        <time>2013-06-25T08:15:36.000Z</time>
      </trkpt>
      <trkpt lat="48.69999" lon="1.75344">
        <ele>171.60000610352</ele>
        <time>2013-06-25T08:15:42.000Z</time>
      </trkpt>
      <trkpt lat="48.69993" lon="1.75344">
        <ele>171.60000610352</ele>
        <time>2013-06-25T08:15:46.000Z</time>
      </trkpt>
      <trkpt lat="48.69984" lon="1.75348">
        <ele>171.60000610352</ele>
        <time>2013-06-25T08:15:52.000Z</time>
      </trkpt>
      <trkpt lat="48.69976" lon="1.75352">
        <ele>171.60000610352</ele>
        <time>2013-06-25T08:15:58.000Z</time>
      </trkpt>
      <trkpt lat="48.69974" lon="1.75353">
        <ele>171.60000610352</ele>
        <time>2013-06-25T08:16:00.000Z</time>
      </trkpt>
      <trkpt lat="48.69963" lon="1.75358">
        <ele>171.80000305176</ele>
        <time>2013-06-25T08:16:07.000Z</time>
      </trkpt>
      <trkpt lat="48.69959" lon="1.7536">
        <ele>171.80000305176</ele>
        <time>2013-06-25T08:16:10.000Z</time>
      </trkpt>
      <trkpt lat="48.69947" lon="1.75367">
        <ele>171.80000305176</ele>
        <time>2013-06-25T08:16:18.000Z</time>
      </trkpt>
      <trkpt lat="48.69937" lon="1.75372">
        <ele>172</ele>
        <time>2013-06-25T08:16:25.000Z</time>
      </trkpt>
      <trkpt lat="48.69936" lon="1.75374">
        <ele>172</ele>
        <time>2013-06-25T08:16:26.000Z</time>
      </trkpt>
      <trkpt lat="48.69925" lon="1.75379">
        <ele>172.19999694824</ele>
        <time>2013-06-25T08:16:34.000Z</time>
      </trkpt>
      <trkpt lat="48.69915" lon="1.75384">
        <ele>172.19999694824</ele>
        <time>2013-06-25T08:16:42.000Z</time>
      </trkpt>
      <trkpt lat="48.69903" lon="1.7539">
        <ele>172</ele>
        <time>2013-06-25T08:16:50.000Z</time>
      </trkpt>
      <trkpt lat="48.69898" lon="1.75392">
        <ele>171.80000305176</ele>
        <time>2013-06-25T08:16:55.000Z</time>
      </trkpt>
      <trkpt lat="48.69889" lon="1.75394">
        <ele>171.60000610352</ele>
        <time>2013-06-25T08:17:02.000Z</time>
      </trkpt>
      <trkpt lat="48.69884" lon="1.75399">
        <ele>171.39999389648</ele>
        <time>2013-06-25T08:17:06.000Z</time>
      </trkpt>
      <trkpt lat="48.69869" lon="1.75409">
        <ele>171</ele>
        <time>2013-06-25T08:17:14.000Z</time>
      </trkpt>
      <trkpt lat="48.69865" lon="1.7541">
        <ele>170.80000305176</ele>
        <time>2013-06-25T08:17:19.000Z</time>
      </trkpt>
      <trkpt lat="48.69865" lon="1.7541">
        <ele>170.80000305176</ele>
        <time>2013-06-25T08:17:20.000Z</time>
      </trkpt>
      <trkpt lat="48.69856" lon="1.75409">
        <ele>170.60000610352</ele>
        <time>2013-06-25T08:17:48.000Z</time>
      </trkpt>
      <trkpt lat="48.6985" lon="1.75414">
        <ele>170.39999389648</ele>
        <time>2013-06-25T08:17:53.000Z</time>
      </trkpt>
      <trkpt lat="48.69843" lon="1.75418">
        <ele>170.19999694824</ele>
        <time>2013-06-25T08:17:58.000Z</time>
      </trkpt>
      <trkpt lat="48.69837" lon="1.7542">
        <ele>169.80000305176</ele>
        <time>2013-06-25T08:18:03.000Z</time>
      </trkpt>
      <trkpt lat="48.69836" lon="1.7542">
        <ele>169.80000305176</ele>
        <time>2013-06-25T08:18:05.000Z</time>
      </trkpt>
      <trkpt lat="48.69831" lon="1.75423">
        <ele>169.60000610352</ele>
        <time>2013-06-25T08:18:10.000Z</time>
      </trkpt>
      <trkpt lat="48.69822" lon="1.75427">
        <ele>169</ele>
        <time>2013-06-25T08:18:17.000Z</time>
      </trkpt>
      <trkpt lat="48.69813" lon="1.75431">
        <ele>168.60000610352</ele>
        <time>2013-06-25T08:18:23.000Z</time>
      </trkpt>
      <trkpt lat="48.69808" lon="1.75435">
        <ele>168.19999694824</ele>
        <time>2013-06-25T08:18:26.000Z</time>
      </trkpt>
      <trkpt lat="48.69797" lon="1.7544">
        <ele>167.60000610352</ele>
        <time>2013-06-25T08:18:34.000Z</time>
      </trkpt>
      <trkpt lat="48.69796" lon="1.75441">
        <ele>167.60000610352</ele>
        <time>2013-06-25T08:18:35.000Z</time>
      </trkpt>
      <trkpt lat="48.69788" lon="1.75446">
        <ele>167</ele>
        <time>2013-06-25T08:18:41.000Z</time>
      </trkpt>
      <trkpt lat="48.69781" lon="1.75449">
        <ele>166.60000610352</ele>
        <time>2013-06-25T08:18:45.000Z</time>
      </trkpt>
      <trkpt lat="48.69763" lon="1.75453">
        <ele>165.60000610352</ele>
        <time>2013-06-25T08:18:51.000Z</time>
      </trkpt>
      <trkpt lat="48.69735" lon="1.75466">
        <ele>163.80000305176</ele>
        <time>2013-06-25T08:18:58.000Z</time>
      </trkpt>
      <trkpt lat="48.69716" lon="1.75474">
        <ele>162.60000610352</ele>
        <time>2013-06-25T08:19:03.000Z</time>
      </trkpt>
      <trkpt lat="48.69704" lon="1.75479">
        <ele>161.80000305176</ele>
        <time>2013-06-25T08:19:06.000Z</time>
      </trkpt>
      <trkpt lat="48.69679" lon="1.75492">
        <ele>159.80000305176</ele>
        <time>2013-06-25T08:19:13.000Z</time>
      </trkpt>
      <trkpt lat="48.69663" lon="1.75499">
        <ele>158.80000305176</ele>
        <time>2013-06-25T08:19:18.000Z</time>
      </trkpt>
      <trkpt lat="48.6964" lon="1.7551">
        <ele>157.80000305176</ele>
        <time>2013-06-25T08:19:25.000Z</time>
      </trkpt>
      <trkpt lat="48.69623" lon="1.75519">
        <ele>157.19999694824</ele>
        <time>2013-06-25T08:19:30.000Z</time>
      </trkpt>
      <trkpt lat="48.69603" lon="1.75527">
        <ele>156.60000610352</ele>
        <time>2013-06-25T08:19:36.000Z</time>
      </trkpt>
      <trkpt lat="48.69585" lon="1.75538">
        <ele>156</ele>
        <time>2013-06-25T08:19:41.000Z</time>
      </trkpt>
      <trkpt lat="48.69566" lon="1.75546">
        <ele>155.80000305176</ele>
        <time>2013-06-25T08:19:46.000Z</time>
      </trkpt>
      <trkpt lat="48.69548" lon="1.75554">
        <ele>155.60000610352</ele>
        <time>2013-06-25T08:19:51.000Z</time>
      </trkpt>
      <trkpt lat="48.69514" lon="1.75569">
        <ele>155.60000610352</ele>
        <time>2013-06-25T08:20:00.000Z</time>
      </trkpt>
      <trkpt lat="48.69489" lon="1.75582">
        <ele>156.39999389648</ele>
        <time>2013-06-25T08:20:07.000Z</time>
      </trkpt>
      <trkpt lat="48.69468" lon="1.75592">
        <ele>157.80000305176</ele>
        <time>2013-06-25T08:20:13.000Z</time>
      </trkpt>
      <trkpt lat="48.69448" lon="1.75597">
        <ele>159</ele>
        <time>2013-06-25T08:20:19.000Z</time>
      </trkpt>
      <trkpt lat="48.69434" lon="1.75598">
        <ele>159.60000610352</ele>
        <time>2013-06-25T08:20:23.000Z</time>
      </trkpt>
      <trkpt lat="48.69417" lon="1.75598">
        <ele>160.39999389648</ele>
        <time>2013-06-25T08:20:28.000Z</time>
      </trkpt>
      <trkpt lat="48.69398" lon="1.75598">
        <ele>160.60000610352</ele>
        <time>2013-06-25T08:20:34.000Z</time>
      </trkpt>
      <trkpt lat="48.69385" lon="1.75597">
        <ele>160.80000305176</ele>
        <time>2013-06-25T08:20:38.000Z</time>
      </trkpt>
      <trkpt lat="48.69366" lon="1.75595">
        <ele>160.80000305176</ele>
        <time>2013-06-25T08:20:43.000Z</time>
      </trkpt>
      <trkpt lat="48.69351" lon="1.75592">
        <ele>161</ele>
        <time>2013-06-25T08:20:47.000Z</time>
      </trkpt>
      <trkpt lat="48.69333" lon="1.75586">
        <ele>161</ele>
        <time>2013-06-25T08:20:52.000Z</time>
      </trkpt>
      <trkpt lat="48.69321" lon="1.75576">
        <ele>160.39999389648</ele>
        <time>2013-06-25T08:20:56.000Z</time>
      </trkpt>
      <trkpt lat="48.69302" lon="1.75554">
        <ele>159.80000305176</ele>
        <time>2013-06-25T08:21:02.000Z</time>
      </trkpt>
      <trkpt lat="48.69281" lon="1.75533">
        <ele>159</ele>
        <time>2013-06-25T08:21:09.000Z</time>
      </trkpt>
      <trkpt lat="48.69261" lon="1.7551">
        <ele>158.19999694824</ele>
        <time>2013-06-25T08:21:15.000Z</time>
      </trkpt>
      <trkpt lat="48.69254" lon="1.75503">
        <ele>158</ele>
        <time>2013-06-25T08:21:17.000Z</time>
      </trkpt>
      <trkpt lat="48.69244" lon="1.75492">
        <ele>158</ele>
        <time>2013-06-25T08:21:20.000Z</time>
      </trkpt>
      <trkpt lat="48.69234" lon="1.75485">
        <ele>158</ele>
        <time>2013-06-25T08:21:23.000Z</time>
      </trkpt>
      <trkpt lat="48.69213" lon="1.75464">
        <ele>158.19999694824</ele>
        <time>2013-06-25T08:21:30.000Z</time>
      </trkpt>
      <trkpt lat="48.69201" lon="1.75454">
        <ele>158</ele>
        <time>2013-06-25T08:21:35.000Z</time>
      </trkpt>
      <trkpt lat="48.69182" lon="1.75436">
        <ele>158</ele>
        <time>2013-06-25T08:21:41.000Z</time>
      </trkpt>
      <trkpt lat="48.69158" lon="1.75415">
        <ele>157.80000305176</ele>
        <time>2013-06-25T08:21:48.000Z</time>
      </trkpt>
      <trkpt lat="48.69146" lon="1.75403">
        <ele>158.19999694824</ele>
        <time>2013-06-25T08:21:52.000Z</time>
      </trkpt>
      <trkpt lat="48.69126" lon="1.75384">
        <ele>158.60000610352</ele>
        <time>2013-06-25T08:21:58.000Z</time>
      </trkpt>
      <trkpt lat="48.69109" lon="1.75367">
        <ele>158.80000305176</ele>
        <time>2013-06-25T08:22:03.000Z</time>
      </trkpt>
      <trkpt lat="48.69084" lon="1.75343">
        <ele>158.60000610352</ele>
        <time>2013-06-25T08:22:10.000Z</time>
      </trkpt>
      <trkpt lat="48.6907" lon="1.75328">
        <ele>158.60000610352</ele>
        <time>2013-06-25T08:22:14.000Z</time>
      </trkpt>
      <trkpt lat="48.69062" lon="1.75323">
        <ele>158.39999389648</ele>
        <time>2013-06-25T08:22:16.000Z</time>
      </trkpt>
      <trkpt lat="48.69049" lon="1.75309">
        <ele>157.80000305176</ele>
        <time>2013-06-25T08:22:20.000Z</time>
      </trkpt>
      <trkpt lat="48.69022" lon="1.75283">
        <ele>156.60000610352</ele>
        <time>2013-06-25T08:22:28.000Z</time>
      </trkpt>
      <trkpt lat="48.69014" lon="1.75273">
        <ele>156</ele>
        <time>2013-06-25T08:22:32.000Z</time>
      </trkpt>
      <trkpt lat="48.69011" lon="1.75267">
        <ele>155.80000305176</ele>
        <time>2013-06-25T08:22:36.000Z</time>
      </trkpt>
      <trkpt lat="48.69006" lon="1.75269">
        <ele>155.60000610352</ele>
        <time>2013-06-25T08:22:42.000Z</time>
      </trkpt>
      <trkpt lat="48.68999" lon="1.75272">
        <ele>155.39999389648</ele>
        <time>2013-06-25T08:22:47.000Z</time>
      </trkpt>
      <trkpt lat="48.68986" lon="1.7527">
        <ele>155</ele>
        <time>2013-06-25T08:22:55.000Z</time>
      </trkpt>
      <trkpt lat="48.6898" lon="1.75267">
        <ele>154.80000305176</ele>
        <time>2013-06-25T08:23:01.000Z</time>
      </trkpt>
      <trkpt lat="48.68979" lon="1.75267">
        <ele>154.80000305176</ele>
        <time>2013-06-25T08:23:03.000Z</time>
      </trkpt>
      <trkpt lat="48.68974" lon="1.75275">
        <ele>154.80000305176</ele>
        <time>2013-06-25T08:23:12.000Z</time>
      </trkpt>
      <trkpt lat="48.68967" lon="1.75281">
        <ele>154.60000610352</ele>
        <time>2013-06-25T08:23:17.000Z</time>
      </trkpt>
      <trkpt lat="48.68964" lon="1.75282">
        <ele>154.60000610352</ele>
        <time>2013-06-25T08:23:19.000Z</time>
      </trkpt>
      <trkpt lat="48.68958" lon="1.75278">
        <ele>154.39999389648</ele>
        <time>2013-06-25T08:23:23.000Z</time>
      </trkpt>
      <trkpt lat="48.68949" lon="1.75264">
        <ele>154</ele>
        <time>2013-06-25T08:23:31.000Z</time>
      </trkpt>
      <trkpt lat="48.68947" lon="1.7526">
        <ele>153.80000305176</ele>
        <time>2013-06-25T08:23:33.000Z</time>
      </trkpt>
      <trkpt lat="48.68943" lon="1.75246">
        <ele>153.60000610352</ele>
        <time>2013-06-25T08:23:39.000Z</time>
      </trkpt>
      <trkpt lat="48.68939" lon="1.75233">
        <ele>153.39999389648</ele>
        <time>2013-06-25T08:23:45.000Z</time>
      </trkpt>
      <trkpt lat="48.68935" lon="1.75219">
        <ele>153.19999694824</ele>
        <time>2013-06-25T08:23:50.000Z</time>
      </trkpt>
      <trkpt lat="48.68932" lon="1.75209">
        <ele>153.19999694824</ele>
        <time>2013-06-25T08:23:55.000Z</time>
      </trkpt>
      <trkpt lat="48.68929" lon="1.75195">
        <ele>153</ele>
        <time>2013-06-25T08:24:02.000Z</time>
      </trkpt>
      <trkpt lat="48.68928" lon="1.75191">
        <ele>153</ele>
        <time>2013-06-25T08:24:06.000Z</time>
      </trkpt>
      <trkpt lat="48.68926" lon="1.7518">
        <ele>153</ele>
        <time>2013-06-25T08:24:13.000Z</time>
      </trkpt>
      <trkpt lat="48.68923" lon="1.75162">
        <ele>153</ele>
        <time>2013-06-25T08:24:21.000Z</time>
      </trkpt>
      <trkpt lat="48.68921" lon="1.75151">
        <ele>153.19999694824</ele>
        <time>2013-06-25T08:24:26.000Z</time>
      </trkpt>
      <trkpt lat="48.68919" lon="1.75139">
        <ele>153.19999694824</ele>
        <time>2013-06-25T08:24:33.000Z</time>
      </trkpt>
      <trkpt lat="48.68916" lon="1.75124">
        <ele>153.39999389648</ele>
        <time>2013-06-25T08:24:39.000Z</time>
      </trkpt>
      <trkpt lat="48.68913" lon="1.75103">
        <ele>153.80000305176</ele>
        <time>2013-06-25T08:24:47.000Z</time>
      </trkpt>
      <trkpt lat="48.68908" lon="1.7508">
        <ele>154</ele>
        <time>2013-06-25T08:24:56.000Z</time>
      </trkpt>
      <trkpt lat="48.68905" lon="1.7506">
        <ele>154</ele>
        <time>2013-06-25T08:25:05.000Z</time>
      </trkpt>
      <trkpt lat="48.68903" lon="1.75047">
        <ele>154</ele>
        <time>2013-06-25T08:25:12.000Z</time>
      </trkpt>
      <trkpt lat="48.68903" lon="1.75045">
        <ele>154</ele>
        <time>2013-06-25T08:25:13.000Z</time>
      </trkpt>
      <trkpt lat="48.68901" lon="1.75034">
        <ele>154</ele>
        <time>2013-06-25T08:25:18.000Z</time>
      </trkpt>
      <trkpt lat="48.689" lon="1.75015">
        <ele>154.19999694824</ele>
        <time>2013-06-25T08:25:27.000Z</time>
      </trkpt>
      <trkpt lat="48.68898" lon="1.75006">
        <ele>154.19999694824</ele>
        <time>2013-06-25T08:25:31.000Z</time>
      </trkpt>
      <trkpt lat="48.68896" lon="1.74992">
        <ele>154.39999389648</ele>
        <time>2013-06-25T08:25:37.000Z</time>
      </trkpt>
      <trkpt lat="48.68891" lon="1.74971">
        <ele>155</ele>
        <time>2013-06-25T08:25:46.000Z</time>
      </trkpt>
      <trkpt lat="48.68888" lon="1.74956">
        <ele>155.39999389648</ele>
        <time>2013-06-25T08:25:53.000Z</time>
      </trkpt>
      <trkpt lat="48.68886" lon="1.74942">
        <ele>155.80000305176</ele>
        <time>2013-06-25T08:26:00.000Z</time>
      </trkpt>
      <trkpt lat="48.68884" lon="1.7493">
        <ele>156.19999694824</ele>
        <time>2013-06-25T08:26:05.000Z</time>
      </trkpt>
      <trkpt lat="48.68882" lon="1.74913">
        <ele>156.60000610352</ele>
        <time>2013-06-25T08:26:12.000Z</time>
      </trkpt>
      <trkpt lat="48.6888" lon="1.74894">
        <ele>156.80000305176</ele>
        <time>2013-06-25T08:26:20.000Z</time>
      </trkpt>
      <trkpt lat="48.68876" lon="1.74874">
        <ele>157</ele>
        <time>2013-06-25T08:26:29.000Z</time>
      </trkpt>
      <trkpt lat="48.68873" lon="1.74851">
        <ele>157.19999694824</ele>
        <time>2013-06-25T08:26:38.000Z</time>
      </trkpt>
      <trkpt lat="48.68869" lon="1.74827">
        <ele>157.19999694824</ele>
        <time>2013-06-25T08:26:47.000Z</time>
      </trkpt>
      <trkpt lat="48.68865" lon="1.74803">
        <ele>157.39999389648</ele>
        <time>2013-06-25T08:26:57.000Z</time>
      </trkpt>
      <trkpt lat="48.68861" lon="1.74784">
        <ele>157.60000610352</ele>
        <time>2013-06-25T08:27:06.000Z</time>
      </trkpt>
      <trkpt lat="48.68857" lon="1.74762">
        <ele>157.60000610352</ele>
        <time>2013-06-25T08:27:15.000Z</time>
      </trkpt>
      <trkpt lat="48.68855" lon="1.74744">
        <ele>157.60000610352</ele>
        <time>2013-06-25T08:27:22.000Z</time>
      </trkpt>
      <trkpt lat="48.68852" lon="1.74724">
        <ele>157.39999389648</ele>
        <time>2013-06-25T08:27:30.000Z</time>
      </trkpt>
      <trkpt lat="48.6885" lon="1.74707">
        <ele>157.39999389648</ele>
        <time>2013-06-25T08:27:37.000Z</time>
      </trkpt>
      <trkpt lat="48.68848" lon="1.74695">
        <ele>157.39999389648</ele>
        <time>2013-06-25T08:27:43.000Z</time>
      </trkpt>
      <trkpt lat="48.68844" lon="1.74679">
        <ele>157.39999389648</ele>
        <time>2013-06-25T08:27:51.000Z</time>
      </trkpt>
      <trkpt lat="48.6884" lon="1.74662">
        <ele>157.19999694824</ele>
        <time>2013-06-25T08:28:00.000Z</time>
      </trkpt>
      <trkpt lat="48.6884" lon="1.74648">
        <ele>157</ele>
        <time>2013-06-25T08:28:06.000Z</time>
      </trkpt>
      <trkpt lat="48.68839" lon="1.74631">
        <ele>156.60000610352</ele>
        <time>2013-06-25T08:28:13.000Z</time>
      </trkpt>
      <trkpt lat="48.68838" lon="1.74613">
        <ele>156.39999389648</ele>
        <time>2013-06-25T08:28:20.000Z</time>
      </trkpt>
      <trkpt lat="48.68838" lon="1.74596">
        <ele>156.19999694824</ele>
        <time>2013-06-25T08:28:28.000Z</time>
      </trkpt>
      <trkpt lat="48.68837" lon="1.74576">
        <ele>156</ele>
        <time>2013-06-25T08:28:35.000Z</time>
      </trkpt>
      <trkpt lat="48.68838" lon="1.74574">
        <ele>156</ele>
        <time>2013-06-25T08:28:36.000Z</time>
      </trkpt>
      <trkpt lat="48.68837" lon="1.74561">
        <ele>156</ele>
        <time>2013-06-25T08:28:41.000Z</time>
      </trkpt>
      <trkpt lat="48.68836" lon="1.74546">
        <ele>156</ele>
        <time>2013-06-25T08:28:47.000Z</time>
      </trkpt>
      <trkpt lat="48.68836" lon="1.74528">
        <ele>156</ele>
        <time>2013-06-25T08:28:53.000Z</time>
      </trkpt>
      <trkpt lat="48.68835" lon="1.74513">
        <ele>156</ele>
        <time>2013-06-25T08:28:59.000Z</time>
      </trkpt>
      <trkpt lat="48.68837" lon="1.74491">
        <ele>156.19999694824</ele>
        <time>2013-06-25T08:29:08.000Z</time>
      </trkpt>
      <trkpt lat="48.68835" lon="1.74476">
        <ele>156.39999389648</ele>
        <time>2013-06-25T08:29:14.000Z</time>
      </trkpt>
      <trkpt lat="48.68833" lon="1.74462">
        <ele>156.80000305176</ele>
        <time>2013-06-25T08:29:20.000Z</time>
      </trkpt>
      <trkpt lat="48.68833" lon="1.74446">
        <ele>157.19999694824</ele>
        <time>2013-06-25T08:29:26.000Z</time>
      </trkpt>
      <trkpt lat="48.68833" lon="1.74443">
        <ele>157.19999694824</ele>
        <time>2013-06-25T08:29:30.000Z</time>
      </trkpt>
      <trkpt lat="48.68832" lon="1.74432">
        <ele>157.80000305176</ele>
        <time>2013-06-25T08:29:38.000Z</time>
      </trkpt>
      <trkpt lat="48.68834" lon="1.74419">
        <ele>157.80000305176</ele>
        <time>2013-06-25T08:29:44.000Z</time>
      </trkpt>
      <trkpt lat="48.68836" lon="1.74406">
        <ele>157.60000610352</ele>
        <time>2013-06-25T08:29:50.000Z</time>
      </trkpt>
      <trkpt lat="48.68835" lon="1.74387">
        <ele>156.80000305176</ele>
        <time>2013-06-25T08:29:57.000Z</time>
      </trkpt>
      <trkpt lat="48.68835" lon="1.7438">
        <ele>156.60000610352</ele>
        <time>2013-06-25T08:29:59.000Z</time>
      </trkpt>
      <trkpt lat="48.68837" lon="1.74365">
        <ele>156.19999694824</ele>
        <time>2013-06-25T08:30:06.000Z</time>
      </trkpt>
      <trkpt lat="48.68834" lon="1.74355">
        <ele>155.80000305176</ele>
        <time>2013-06-25T08:30:10.000Z</time>
      </trkpt>
      <trkpt lat="48.6883" lon="1.74342">
        <ele>155.60000610352</ele>
        <time>2013-06-25T08:30:16.000Z</time>
      </trkpt>
      <trkpt lat="48.68829" lon="1.74323">
        <ele>155.39999389648</ele>
        <time>2013-06-25T08:30:23.000Z</time>
      </trkpt>
      <trkpt lat="48.68826" lon="1.74315">
        <ele>155.60000610352</ele>
        <time>2013-06-25T08:30:30.000Z</time>
      </trkpt>
      <trkpt lat="48.68827" lon="1.74304">
        <ele>155.19999694824</ele>
        <time>2013-06-25T08:30:36.000Z</time>
      </trkpt>
      <trkpt lat="48.68828" lon="1.7429">
        <ele>154.80000305176</ele>
        <time>2013-06-25T08:30:42.000Z</time>
      </trkpt>
      <trkpt lat="48.68826" lon="1.74273">
        <ele>154.60000610352</ele>
        <time>2013-06-25T08:30:51.000Z</time>
      </trkpt>
      <trkpt lat="48.68825" lon="1.74269">
        <ele>154.60000610352</ele>
        <time>2013-06-25T08:30:53.000Z</time>
      </trkpt>
      <trkpt lat="48.68822" lon="1.74257">
        <ele>154.60000610352</ele>
        <time>2013-06-25T08:30:59.000Z</time>
      </trkpt>
      <trkpt lat="48.68815" lon="1.74246">
        <ele>154.60000610352</ele>
        <time>2013-06-25T08:31:06.000Z</time>
      </trkpt>
      <trkpt lat="48.6881" lon="1.7424">
        <ele>155</ele>
        <time>2013-06-25T08:31:10.000Z</time>
      </trkpt>
      <trkpt lat="48.688" lon="1.74233">
        <ele>155.39999389648</ele>
        <time>2013-06-25T08:31:16.000Z</time>
      </trkpt>
      <trkpt lat="48.68798" lon="1.74232">
        <ele>155.39999389648</ele>
        <time>2013-06-25T08:31:17.000Z</time>
      </trkpt>
      <trkpt lat="48.68785" lon="1.74229">
        <ele>155.60000610352</ele>
        <time>2013-06-25T08:31:26.000Z</time>
      </trkpt>
      <trkpt lat="48.68777" lon="1.74228">
        <ele>155.80000305176</ele>
        <time>2013-06-25T08:31:32.000Z</time>
      </trkpt>
      <trkpt lat="48.68769" lon="1.74229">
        <ele>156</ele>
        <time>2013-06-25T08:31:38.000Z</time>
      </trkpt>
      <trkpt lat="48.68764" lon="1.7423">
        <ele>156.19999694824</ele>
        <time>2013-06-25T08:31:41.000Z</time>
      </trkpt>
      <trkpt lat="48.68758" lon="1.74229">
        <ele>156.19999694824</ele>
        <time>2013-06-25T08:31:45.000Z</time>
      </trkpt>
      <trkpt lat="48.68755" lon="1.7423">
        <ele>156.39999389648</ele>
        <time>2013-06-25T08:31:47.000Z</time>
      </trkpt>
      <trkpt lat="48.68749" lon="1.74231">
        <ele>156.39999389648</ele>
        <time>2013-06-25T08:31:50.000Z</time>
      </trkpt>
      <trkpt lat="48.68739" lon="1.74232">
        <ele>156.60000610352</ele>
        <time>2013-06-25T08:31:56.000Z</time>
      </trkpt>
      <trkpt lat="48.68729" lon="1.74234">
        <ele>156.60000610352</ele>
        <time>2013-06-25T08:32:03.000Z</time>
      </trkpt>
      <trkpt lat="48.68722" lon="1.74235">
        <ele>156.80000305176</ele>
        <time>2013-06-25T08:32:07.000Z</time>
      </trkpt>
      <trkpt lat="48.6871" lon="1.74237">
        <ele>156.80000305176</ele>
        <time>2013-06-25T08:32:15.000Z</time>
      </trkpt>
      <trkpt lat="48.68703" lon="1.74235">
        <ele>156.80000305176</ele>
        <time>2013-06-25T08:32:20.000Z</time>
      </trkpt>
      <trkpt lat="48.68702" lon="1.74226">
        <ele>156.80000305176</ele>
        <time>2013-06-25T08:32:24.000Z</time>
      </trkpt>
      <trkpt lat="48.68702" lon="1.74211">
        <ele>156.80000305176</ele>
        <time>2013-06-25T08:32:30.000Z</time>
      </trkpt>
      <trkpt lat="48.68702" lon="1.74196">
        <ele>156.80000305176</ele>
        <time>2013-06-25T08:32:37.000Z</time>
      </trkpt>
      <trkpt lat="48.68702" lon="1.74189">
        <ele>156.60000610352</ele>
        <time>2013-06-25T08:32:40.000Z</time>
      </trkpt>
      <trkpt lat="48.68699" lon="1.74176">
        <ele>156.80000305176</ele>
        <time>2013-06-25T08:32:46.000Z</time>
      </trkpt>
      <trkpt lat="48.68695" lon="1.7416">
        <ele>157.19999694824</ele>
        <time>2013-06-25T08:32:52.000Z</time>
      </trkpt>
      <trkpt lat="48.68694" lon="1.74147">
        <ele>158</ele>
        <time>2013-06-25T08:32:58.000Z</time>
      </trkpt>
      <trkpt lat="48.68694" lon="1.74135">
        <ele>158.60000610352</ele>
        <time>2013-06-25T08:33:03.000Z</time>
      </trkpt>
      <trkpt lat="48.68691" lon="1.74123">
        <ele>159.39999389648</ele>
        <time>2013-06-25T08:33:08.000Z</time>
      </trkpt>
      <trkpt lat="48.6869" lon="1.74116">
        <ele>159.80000305176</ele>
        <time>2013-06-25T08:33:12.000Z</time>
      </trkpt>
      <trkpt lat="48.68687" lon="1.74101">
        <ele>160.60000610352</ele>
        <time>2013-06-25T08:33:20.000Z</time>
      </trkpt>
      <trkpt lat="48.68685" lon="1.74088">
        <ele>161.60000610352</ele>
        <time>2013-06-25T08:33:26.000Z</time>
      </trkpt>
      <trkpt lat="48.6868" lon="1.74072">
        <ele>162.60000610352</ele>
        <time>2013-06-25T08:33:34.000Z</time>
      </trkpt>
      <trkpt lat="48.68677" lon="1.74053">
        <ele>163.39999389648</ele>
        <time>2013-06-25T08:33:42.000Z</time>
      </trkpt>
      <trkpt lat="48.68673" lon="1.74037">
        <ele>164.19999694824</ele>
        <time>2013-06-25T08:33:49.000Z</time>
      </trkpt>
      <trkpt lat="48.6867" lon="1.74019">
        <ele>165</ele>
        <time>2013-06-25T08:33:57.000Z</time>
      </trkpt>
      <trkpt lat="48.68668" lon="1.74">
        <ele>165.80000305176</ele>
        <time>2013-06-25T08:34:04.000Z</time>
      </trkpt>
      <trkpt lat="48.68665" lon="1.73981">
        <ele>166.60000610352</ele>
        <time>2013-06-25T08:34:13.000Z</time>
      </trkpt>
      <trkpt lat="48.68664" lon="1.73977">
        <ele>166.80000305176</ele>
        <time>2013-06-25T08:34:15.000Z</time>
      </trkpt>
      <trkpt lat="48.68662" lon="1.73959">
        <ele>167.19999694824</ele>
        <time>2013-06-25T08:34:23.000Z</time>
      </trkpt>
      <trkpt lat="48.6866" lon="1.7395">
        <ele>167.60000610352</ele>
        <time>2013-06-25T08:34:26.000Z</time>
      </trkpt>
      <trkpt lat="48.68658" lon="1.73943">
        <ele>167.80000305176</ele>
        <time>2013-06-25T08:34:30.000Z</time>
      </trkpt>
      <trkpt lat="48.68657" lon="1.7393">
        <ele>168.19999694824</ele>
        <time>2013-06-25T08:34:36.000Z</time>
      </trkpt>
      <trkpt lat="48.68654" lon="1.73913">
        <ele>168.60000610352</ele>
        <time>2013-06-25T08:34:42.000Z</time>
      </trkpt>
      <trkpt lat="48.68651" lon="1.73897">
        <ele>168.80000305176</ele>
        <time>2013-06-25T08:34:49.000Z</time>
      </trkpt>
      <trkpt lat="48.68648" lon="1.73873">
        <ele>169.19999694824</ele>
        <time>2013-06-25T08:35:00.000Z</time>
      </trkpt>
      <trkpt lat="48.68646" lon="1.73856">
        <ele>169.60000610352</ele>
        <time>2013-06-25T08:35:08.000Z</time>
      </trkpt>
      <trkpt lat="48.68646" lon="1.73842">
        <ele>170</ele>
        <time>2013-06-25T08:35:14.000Z</time>
      </trkpt>
      <trkpt lat="48.68644" lon="1.73824">
        <ele>170.19999694824</ele>
        <time>2013-06-25T08:35:22.000Z</time>
      </trkpt>
      <trkpt lat="48.68643" lon="1.73809">
        <ele>170.19999694824</ele>
        <time>2013-06-25T08:35:29.000Z</time>
      </trkpt>
      <trkpt lat="48.68642" lon="1.73799">
        <ele>170.19999694824</ele>
        <time>2013-06-25T08:35:34.000Z</time>
      </trkpt>
      <trkpt lat="48.68638" lon="1.73785">
        <ele>170</ele>
        <time>2013-06-25T08:35:40.000Z</time>
      </trkpt>
      <trkpt lat="48.68637" lon="1.73777">
        <ele>170</ele>
        <time>2013-06-25T08:35:43.000Z</time>
      </trkpt>
      <trkpt lat="48.68634" lon="1.73764">
        <ele>170</ele>
        <time>2013-06-25T08:35:49.000Z</time>
      </trkpt>
      <trkpt lat="48.68633" lon="1.73751">
        <ele>169.80000305176</ele>
        <time>2013-06-25T08:35:55.000Z</time>
      </trkpt>
      <trkpt lat="48.68631" lon="1.73738">
        <ele>169.19999694824</ele>
        <time>2013-06-25T08:36:01.000Z</time>
      </trkpt>
      <trkpt lat="48.6863" lon="1.73724">
        <ele>168.60000610352</ele>
        <time>2013-06-25T08:36:08.000Z</time>
      </trkpt>
      <trkpt lat="48.6863" lon="1.73718">
        <ele>168.39999389648</ele>
        <time>2013-06-25T08:36:11.000Z</time>
      </trkpt>
      <trkpt lat="48.68627" lon="1.73712">
        <ele>168</ele>
        <time>2013-06-25T08:36:15.000Z</time>
      </trkpt>
      <trkpt lat="48.68626" lon="1.73693">
        <ele>167</ele>
        <time>2013-06-25T08:36:23.000Z</time>
      </trkpt>
      <trkpt lat="48.68622" lon="1.73671">
        <ele>165.80000305176</ele>
        <time>2013-06-25T08:36:31.000Z</time>
      </trkpt>
      <trkpt lat="48.68618" lon="1.73651">
        <ele>165</ele>
        <time>2013-06-25T08:36:39.000Z</time>
      </trkpt>
      <trkpt lat="48.68616" lon="1.73635">
        <ele>164.39999389648</ele>
        <time>2013-06-25T08:36:45.000Z</time>
      </trkpt>
      <trkpt lat="48.68613" lon="1.73615">
        <ele>163.80000305176</ele>
        <time>2013-06-25T08:36:53.000Z</time>
      </trkpt>
      <trkpt lat="48.68609" lon="1.73599">
        <ele>163.39999389648</ele>
        <time>2013-06-25T08:37:01.000Z</time>
      </trkpt>
      <trkpt lat="48.68607" lon="1.73587">
        <ele>163</ele>
        <time>2013-06-25T08:37:06.000Z</time>
      </trkpt>
      <trkpt lat="48.68605" lon="1.73571">
        <ele>163</ele>
        <time>2013-06-25T08:37:13.000Z</time>
      </trkpt>
      <trkpt lat="48.68604" lon="1.7356">
        <ele>163.19999694824</ele>
        <time>2013-06-25T08:37:18.000Z</time>
      </trkpt>
      <trkpt lat="48.68603" lon="1.73559">
        <ele>163.19999694824</ele>
        <time>2013-06-25T08:37:21.000Z</time>
      </trkpt>
      <trkpt lat="48.68608" lon="1.7356">
        <ele>163.39999389648</ele>
        <time>2013-06-25T08:37:40.000Z</time>
      </trkpt>
      <trkpt lat="48.68617" lon="1.73558">
        <ele>163.60000610352</ele>
        <time>2013-06-25T08:37:44.000Z</time>
      </trkpt>
      <trkpt lat="48.68631" lon="1.73558">
        <ele>164</ele>
        <time>2013-06-25T08:37:50.000Z</time>
      </trkpt>
      <trkpt lat="48.68645" lon="1.73559">
        <ele>164.60000610352</ele>
        <time>2013-06-25T08:37:55.000Z</time>
      </trkpt>
      <trkpt lat="48.68657" lon="1.73559">
        <ele>165</ele>
        <time>2013-06-25T08:38:00.000Z</time>
      </trkpt>
      <trkpt lat="48.68671" lon="1.73559">
        <ele>165.60000610352</ele>
        <time>2013-06-25T08:38:07.000Z</time>
      </trkpt>
      <trkpt lat="48.68683" lon="1.7356">
        <ele>166.19999694824</ele>
        <time>2013-06-25T08:38:13.000Z</time>
      </trkpt>
      <trkpt lat="48.68688" lon="1.7356">
        <ele>166.39999389648</ele>
        <time>2013-06-25T08:38:16.000Z</time>
      </trkpt>
      <trkpt lat="48.68699" lon="1.7356">
        <ele>167</ele>
        <time>2013-06-25T08:38:22.000Z</time>
      </trkpt>
      <trkpt lat="48.68711" lon="1.73561">
        <ele>167.60000610352</ele>
        <time>2013-06-25T08:38:28.000Z</time>
      </trkpt>
      <trkpt lat="48.6872" lon="1.73563">
        <ele>168.19999694824</ele>
        <time>2013-06-25T08:38:33.000Z</time>
      </trkpt>
      <trkpt lat="48.68729" lon="1.73568">
        <ele>168.60000610352</ele>
        <time>2013-06-25T08:38:38.000Z</time>
      </trkpt>
      <trkpt lat="48.68737" lon="1.73567">
        <ele>169</ele>
        <time>2013-06-25T08:38:43.000Z</time>
      </trkpt>
      <trkpt lat="48.6874" lon="1.73567">
        <ele>169.19999694824</ele>
        <time>2013-06-25T08:38:45.000Z</time>
      </trkpt>
      <trkpt lat="48.68749" lon="1.7357">
        <ele>169.60000610352</ele>
        <time>2013-06-25T08:38:51.000Z</time>
      </trkpt>
      <trkpt lat="48.68761" lon="1.73572">
        <ele>169.80000305176</ele>
        <time>2013-06-25T08:38:57.000Z</time>
      </trkpt>
      <trkpt lat="48.68769" lon="1.73573">
        <ele>169.80000305176</ele>
        <time>2013-06-25T08:39:02.000Z</time>
      </trkpt>
      <trkpt lat="48.6878" lon="1.73574">
        <ele>170</ele>
        <time>2013-06-25T08:39:09.000Z</time>
      </trkpt>
      <trkpt lat="48.68789" lon="1.73576">
        <ele>170</ele>
        <time>2013-06-25T08:39:15.000Z</time>
      </trkpt>
      <trkpt lat="48.68801" lon="1.73576">
        <ele>170</ele>
        <time>2013-06-25T08:39:21.000Z</time>
      </trkpt>
      <trkpt lat="48.6881" lon="1.73576">
        <ele>170</ele>
        <time>2013-06-25T08:39:27.000Z</time>
      </trkpt>
      <trkpt lat="48.68821" lon="1.73577">
        <ele>170</ele>
        <time>2013-06-25T08:39:34.000Z</time>
      </trkpt>
      <trkpt lat="48.68828" lon="1.73578">
        <ele>170</ele>
        <time>2013-06-25T08:39:40.000Z</time>
      </trkpt>
      <trkpt lat="48.68835" lon="1.73578">
        <ele>170</ele>
        <time>2013-06-25T08:39:46.000Z</time>
      </trkpt>
      <trkpt lat="48.68841" lon="1.73578">
        <ele>170</ele>
        <time>2013-06-25T08:39:51.000Z</time>
      </trkpt>
      <trkpt lat="48.68847" lon="1.73578">
        <ele>169.80000305176</ele>
        <time>2013-06-25T08:39:57.000Z</time>
      </trkpt>
      <trkpt lat="48.68849" lon="1.73579">
        <ele>169.80000305176</ele>
        <time>2013-06-25T08:40:00.000Z</time>
      </trkpt>
      <trkpt lat="48.68855" lon="1.73579">
        <ele>169.80000305176</ele>
        <time>2013-06-25T08:40:06.000Z</time>
      </trkpt>
      <trkpt lat="48.68865" lon="1.73581">
        <ele>169.60000610352</ele>
        <time>2013-06-25T08:40:11.000Z</time>
      </trkpt>
      <trkpt lat="48.68875" lon="1.7358">
        <ele>169.39999389648</ele>
        <time>2013-06-25T08:40:18.000Z</time>
      </trkpt>
      <trkpt lat="48.68885" lon="1.73582">
        <ele>169.39999389648</ele>
        <time>2013-06-25T08:40:24.000Z</time>
      </trkpt>
      <trkpt lat="48.68899" lon="1.73584">
        <ele>169.19999694824</ele>
        <time>2013-06-25T08:40:34.000Z</time>
      </trkpt>
      <trkpt lat="48.68908" lon="1.73585">
        <ele>169</ele>
        <time>2013-06-25T08:40:40.000Z</time>
      </trkpt>
      <trkpt lat="48.68911" lon="1.73585">
        <ele>169</ele>
        <time>2013-06-25T08:40:42.000Z</time>
      </trkpt>
      <trkpt lat="48.68918" lon="1.73587">
        <ele>169</ele>
        <time>2013-06-25T08:40:47.000Z</time>
      </trkpt>
      <trkpt lat="48.6893" lon="1.73586">
        <ele>169.19999694824</ele>
        <time>2013-06-25T08:40:54.000Z</time>
      </trkpt>
      <trkpt lat="48.68941" lon="1.73588">
        <ele>169.60000610352</ele>
        <time>2013-06-25T08:41:00.000Z</time>
      </trkpt>
      <trkpt lat="48.68955" lon="1.7359">
        <ele>170</ele>
        <time>2013-06-25T08:41:09.000Z</time>
      </trkpt>
      <trkpt lat="48.6897" lon="1.73593">
        <ele>170.39999389648</ele>
        <time>2013-06-25T08:41:19.000Z</time>
      </trkpt>
      <trkpt lat="48.68981" lon="1.73595">
        <ele>170.80000305176</ele>
        <time>2013-06-25T08:41:26.000Z</time>
      </trkpt>
      <trkpt lat="48.68993" lon="1.73596">
        <ele>171</ele>
        <time>2013-06-25T08:41:33.000Z</time>
      </trkpt>
      <trkpt lat="48.69004" lon="1.73598">
        <ele>171.39999389648</ele>
        <time>2013-06-25T08:41:39.000Z</time>
      </trkpt>
      <trkpt lat="48.69014" lon="1.736">
        <ele>172</ele>
        <time>2013-06-25T08:41:46.000Z</time>
      </trkpt>
      <trkpt lat="48.69017" lon="1.73601">
        <ele>172.19999694824</ele>
        <time>2013-06-25T08:41:48.000Z</time>
      </trkpt>
      <trkpt lat="48.69026" lon="1.73601">
        <ele>172.60000610352</ele>
        <time>2013-06-25T08:41:53.000Z</time>
      </trkpt>
      <trkpt lat="48.69028" lon="1.73602">
        <ele>172.80000305176</ele>
        <time>2013-06-25T08:41:54.000Z</time>
      </trkpt>
      <trkpt lat="48.69039" lon="1.73603">
        <ele>173.39999389648</ele>
        <time>2013-06-25T08:42:00.000Z</time>
      </trkpt>
      <trkpt lat="48.69041" lon="1.73603">
        <ele>173.39999389648</ele>
        <time>2013-06-25T08:42:01.000Z</time>
      </trkpt>
      <trkpt lat="48.69053" lon="1.73603">
        <ele>174</ele>
        <time>2013-06-25T08:42:08.000Z</time>
      </trkpt>
      <trkpt lat="48.69066" lon="1.73606">
        <ele>174.80000305176</ele>
        <time>2013-06-25T08:42:16.000Z</time>
      </trkpt>
      <trkpt lat="48.69069" lon="1.73605">
        <ele>175</ele>
        <time>2013-06-25T08:42:19.000Z</time>
      </trkpt>
      <trkpt lat="48.69074" lon="1.73607">
        <ele>175.19999694824</ele>
        <time>2013-06-25T08:42:23.000Z</time>
      </trkpt>
      <trkpt lat="48.69081" lon="1.73607">
        <ele>175.60000610352</ele>
        <time>2013-06-25T08:42:28.000Z</time>
      </trkpt>
      <trkpt lat="48.69093" lon="1.7361">
        <ele>176.19999694824</ele>
        <time>2013-06-25T08:42:34.000Z</time>
      </trkpt>
      <trkpt lat="48.69102" lon="1.7361">
        <ele>176.60000610352</ele>
        <time>2013-06-25T08:42:39.000Z</time>
      </trkpt>
      <trkpt lat="48.69115" lon="1.7361">
        <ele>177.19999694824</ele>
        <time>2013-06-25T08:42:46.000Z</time>
      </trkpt>
      <trkpt lat="48.69129" lon="1.73609">
        <ele>178</ele>
        <time>2013-06-25T08:42:55.000Z</time>
      </trkpt>
      <trkpt lat="48.69139" lon="1.7361">
        <ele>178.39999389648</ele>
        <time>2013-06-25T08:43:00.000Z</time>
      </trkpt>
      <trkpt lat="48.69148" lon="1.73611">
        <ele>179</ele>
        <time>2013-06-25T08:43:06.000Z</time>
      </trkpt>
      <trkpt lat="48.69158" lon="1.73611">
        <ele>179.39999389648</ele>
        <time>2013-06-25T08:43:12.000Z</time>
      </trkpt>
      <trkpt lat="48.69165" lon="1.73612">
        <ele>179.80000305176</ele>
        <time>2013-06-25T08:43:17.000Z</time>
      </trkpt>
      <trkpt lat="48.69179" lon="1.73613">
        <ele>179.60000610352</ele>
        <time>2013-06-25T08:43:25.000Z</time>
      </trkpt>
      <trkpt lat="48.6919" lon="1.73616">
        <ele>179.19999694824</ele>
        <time>2013-06-25T08:43:31.000Z</time>
      </trkpt>
      <trkpt lat="48.692" lon="1.73618">
        <ele>178.80000305176</ele>
        <time>2013-06-25T08:43:39.000Z</time>
      </trkpt>
      <trkpt lat="48.69211" lon="1.73617">
        <ele>178.39999389648</ele>
        <time>2013-06-25T08:43:45.000Z</time>
      </trkpt>
      <trkpt lat="48.69218" lon="1.73619">
        <ele>178.19999694824</ele>
        <time>2013-06-25T08:43:49.000Z</time>
      </trkpt>
      <trkpt lat="48.69228" lon="1.73622">
        <ele>177.80000305176</ele>
        <time>2013-06-25T08:43:55.000Z</time>
      </trkpt>
      <trkpt lat="48.69239" lon="1.73623">
        <ele>177.39999389648</ele>
        <time>2013-06-25T08:44:01.000Z</time>
      </trkpt>
      <trkpt lat="48.69245" lon="1.73625">
        <ele>177</ele>
        <time>2013-06-25T08:44:06.000Z</time>
      </trkpt>
      <trkpt lat="48.69254" lon="1.73624">
        <ele>176.80000305176</ele>
        <time>2013-06-25T08:44:10.000Z</time>
      </trkpt>
      <trkpt lat="48.69268" lon="1.73624">
        <ele>176.19999694824</ele>
        <time>2013-06-25T08:44:18.000Z</time>
      </trkpt>
      <trkpt lat="48.69284" lon="1.73626">
        <ele>175.39999389648</ele>
        <time>2013-06-25T08:44:25.000Z</time>
      </trkpt>
      <trkpt lat="48.69286" lon="1.73627">
        <ele>175.19999694824</ele>
        <time>2013-06-25T08:44:26.000Z</time>
      </trkpt>
      <trkpt lat="48.69294" lon="1.73626">
        <ele>175</ele>
        <time>2013-06-25T08:44:31.000Z</time>
      </trkpt>
      <trkpt lat="48.69301" lon="1.73627">
        <ele>174.60000610352</ele>
        <time>2013-06-25T08:44:36.000Z</time>
      </trkpt>
      <trkpt lat="48.69305" lon="1.73628">
        <ele>174.39999389648</ele>
        <time>2013-06-25T08:44:40.000Z</time>
      </trkpt>
      <trkpt lat="48.69314" lon="1.73629">
        <ele>174</ele>
        <time>2013-06-25T08:44:46.000Z</time>
      </trkpt>
      <trkpt lat="48.69323" lon="1.73631">
        <ele>173.39999389648</ele>
        <time>2013-06-25T08:44:50.000Z</time>
      </trkpt>
      <trkpt lat="48.69335" lon="1.73632">
        <ele>173</ele>
        <time>2013-06-25T08:44:56.000Z</time>
      </trkpt>
      <trkpt lat="48.69345" lon="1.73631">
        <ele>172.80000305176</ele>
        <time>2013-06-25T08:45:01.000Z</time>
      </trkpt>
      <trkpt lat="48.69354" lon="1.73633">
        <ele>172.39999389648</ele>
        <time>2013-06-25T08:45:06.000Z</time>
      </trkpt>
      <trkpt lat="48.6936" lon="1.73633">
        <ele>172.19999694824</ele>
        <time>2013-06-25T08:45:09.000Z</time>
      </trkpt>
      <trkpt lat="48.6937" lon="1.73632">
        <ele>172</ele>
        <time>2013-06-25T08:45:15.000Z</time>
      </trkpt>
      <trkpt lat="48.6938" lon="1.73637">
        <ele>171.60000610352</ele>
        <time>2013-06-25T08:45:22.000Z</time>
      </trkpt>
      <trkpt lat="48.69389" lon="1.73639">
        <ele>171.39999389648</ele>
        <time>2013-06-25T08:45:28.000Z</time>
      </trkpt>
      <trkpt lat="48.69407" lon="1.7364">
        <ele>171</ele>
        <time>2013-06-25T08:45:38.000Z</time>
      </trkpt>
      <trkpt lat="48.6942" lon="1.7364">
        <ele>171</ele>
        <time>2013-06-25T08:45:46.000Z</time>
      </trkpt>
      <trkpt lat="48.69437" lon="1.73641">
        <ele>171.80000305176</ele>
        <time>2013-06-25T08:45:55.000Z</time>
      </trkpt>
      <trkpt lat="48.69452" lon="1.73642">
        <ele>172.39999389648</ele>
        <time>2013-06-25T08:46:03.000Z</time>
      </trkpt>
      <trkpt lat="48.69467" lon="1.73643">
        <ele>172.80000305176</ele>
        <time>2013-06-25T08:46:12.000Z</time>
      </trkpt>
      <trkpt lat="48.69479" lon="1.73644">
        <ele>173.39999389648</ele>
        <time>2013-06-25T08:46:19.000Z</time>
      </trkpt>
      <trkpt lat="48.69492" lon="1.73644">
        <ele>173.80000305176</ele>
        <time>2013-06-25T08:46:26.000Z</time>
      </trkpt>
      <trkpt lat="48.69503" lon="1.73645">
        <ele>174.39999389648</ele>
        <time>2013-06-25T08:46:33.000Z</time>
      </trkpt>
      <trkpt lat="48.69515" lon="1.73647">
        <ele>175.19999694824</ele>
        <time>2013-06-25T08:46:40.000Z</time>
      </trkpt>
      <trkpt lat="48.69528" lon="1.73648">
        <ele>176.19999694824</ele>
        <time>2013-06-25T08:46:49.000Z</time>
      </trkpt>
      <trkpt lat="48.69536" lon="1.73647">
        <ele>176.80000305176</ele>
        <time>2013-06-25T08:46:55.000Z</time>
      </trkpt>
      <trkpt lat="48.69537" lon="1.73647">
        <ele>177</ele>
        <time>2013-06-25T08:46:56.000Z</time>
      </trkpt>
      <trkpt lat="48.69542" lon="1.73649">
        <ele>177.19999694824</ele>
        <time>2013-06-25T08:47:00.000Z</time>
      </trkpt>
      <trkpt lat="48.69559" lon="1.73651">
        <ele>178.39999389648</ele>
        <time>2013-06-25T08:47:11.000Z</time>
      </trkpt>
      <trkpt lat="48.69571" lon="1.73656">
        <ele>179.19999694824</ele>
        <time>2013-06-25T08:47:19.000Z</time>
      </trkpt>
      <trkpt lat="48.69583" lon="1.73655">
        <ele>180.19999694824</ele>
        <time>2013-06-25T08:47:26.000Z</time>
      </trkpt>
      <trkpt lat="48.69586" lon="1.73655">
        <ele>180.19999694824</ele>
        <time>2013-06-25T08:47:28.000Z</time>
      </trkpt>
      <trkpt lat="48.69594" lon="1.73654">
        <ele>180.19999694824</ele>
        <time>2013-06-25T08:47:32.000Z</time>
      </trkpt>
      <trkpt lat="48.69605" lon="1.73657">
        <ele>180</ele>
        <time>2013-06-25T08:47:39.000Z</time>
      </trkpt>
      <trkpt lat="48.69607" lon="1.73656">
        <ele>180.19999694824</ele>
        <time>2013-06-25T08:47:42.000Z</time>
      </trkpt>
      <trkpt lat="48.69615" lon="1.73657">
        <ele>180</ele>
        <time>2013-06-25T08:47:49.000Z</time>
      </trkpt>
      <trkpt lat="48.69616" lon="1.73657">
        <ele>180</ele>
        <time>2013-06-25T08:47:50.000Z</time>
      </trkpt>
      <trkpt lat="48.69628" lon="1.7366">
        <ele>180</ele>
        <time>2013-06-25T08:47:58.000Z</time>
      </trkpt>
      <trkpt lat="48.69638" lon="1.73661">
        <ele>180</ele>
        <time>2013-06-25T08:48:05.000Z</time>
      </trkpt>
      <trkpt lat="48.69643" lon="1.73667">
        <ele>179.80000305176</ele>
        <time>2013-06-25T08:48:10.000Z</time>
      </trkpt>
      <trkpt lat="48.69652" lon="1.73668">
        <ele>179.80000305176</ele>
        <time>2013-06-25T08:48:15.000Z</time>
      </trkpt>
      <trkpt lat="48.69663" lon="1.73668">
        <ele>179.80000305176</ele>
        <time>2013-06-25T08:48:22.000Z</time>
      </trkpt>
      <trkpt lat="48.69672" lon="1.73667">
        <ele>179.80000305176</ele>
        <time>2013-06-25T08:48:29.000Z</time>
      </trkpt>
      <trkpt lat="48.6968" lon="1.73667">
        <ele>179.80000305176</ele>
        <time>2013-06-25T08:48:34.000Z</time>
      </trkpt>
      <trkpt lat="48.69686" lon="1.73669">
        <ele>179.80000305176</ele>
        <time>2013-06-25T08:48:39.000Z</time>
      </trkpt>
      <trkpt lat="48.69689" lon="1.7367">
        <ele>179.80000305176</ele>
        <time>2013-06-25T08:48:41.000Z</time>
      </trkpt>
      <trkpt lat="48.69704" lon="1.73671">
        <ele>179.80000305176</ele>
        <time>2013-06-25T08:48:49.000Z</time>
      </trkpt>
      <trkpt lat="48.69714" lon="1.73671">
        <ele>179.80000305176</ele>
        <time>2013-06-25T08:48:54.000Z</time>
      </trkpt>
      <trkpt lat="48.69723" lon="1.73671">
        <ele>179.80000305176</ele>
        <time>2013-06-25T08:48:59.000Z</time>
      </trkpt>
      <trkpt lat="48.69733" lon="1.73671">
        <ele>179.80000305176</ele>
        <time>2013-06-25T08:49:05.000Z</time>
      </trkpt>
      <trkpt lat="48.69741" lon="1.73672">
        <ele>179.80000305176</ele>
        <time>2013-06-25T08:49:11.000Z</time>
      </trkpt>
      <trkpt lat="48.69749" lon="1.73668">
        <ele>179.80000305176</ele>
        <time>2013-06-25T08:49:16.000Z</time>
      </trkpt>
      <trkpt lat="48.69755" lon="1.7367">
        <ele>179.80000305176</ele>
        <time>2013-06-25T08:49:20.000Z</time>
      </trkpt>
      <trkpt lat="48.69763" lon="1.73666">
        <ele>179.80000305176</ele>
        <time>2013-06-25T08:49:27.000Z</time>
      </trkpt>
      <trkpt lat="48.69769" lon="1.73668">
        <ele>179.60000610352</ele>
        <time>2013-06-25T08:49:32.000Z</time>
      </trkpt>
      <trkpt lat="48.69773" lon="1.73676">
        <ele>179.39999389648</ele>
        <time>2013-06-25T08:49:36.000Z</time>
      </trkpt>
      <trkpt lat="48.69776" lon="1.7368">
        <ele>179.19999694824</ele>
        <time>2013-06-25T08:49:39.000Z</time>
      </trkpt>
      <trkpt lat="48.6978" lon="1.73679">
        <ele>179.19999694824</ele>
        <time>2013-06-25T08:49:45.000Z</time>
      </trkpt>
      <trkpt lat="48.69791" lon="1.73673">
        <ele>179.19999694824</ele>
        <time>2013-06-25T08:50:46.000Z</time>
      </trkpt>
      <trkpt lat="48.69802" lon="1.73677">
        <ele>179</ele>
        <time>2013-06-25T08:50:52.000Z</time>
      </trkpt>
      <trkpt lat="48.69813" lon="1.7368">
        <ele>179</ele>
        <time>2013-06-25T08:50:57.000Z</time>
      </trkpt>
      <trkpt lat="48.69833" lon="1.73685">
        <ele>178.60000610352</ele>
        <time>2013-06-25T08:51:03.000Z</time>
      </trkpt>
      <trkpt lat="48.69847" lon="1.73689">
        <ele>178.39999389648</ele>
        <time>2013-06-25T08:51:08.000Z</time>
      </trkpt>
      <trkpt lat="48.69864" lon="1.73692">
        <ele>178</ele>
        <time>2013-06-25T08:51:13.000Z</time>
      </trkpt>
      <trkpt lat="48.69886" lon="1.73694">
        <ele>177.60000610352</ele>
        <time>2013-06-25T08:51:18.000Z</time>
      </trkpt>
      <trkpt lat="48.69898" lon="1.73694">
        <ele>177.19999694824</ele>
        <time>2013-06-25T08:51:21.000Z</time>
      </trkpt>
      <trkpt lat="48.69916" lon="1.73696">
        <ele>177</ele>
        <time>2013-06-25T08:51:25.000Z</time>
      </trkpt>
      <trkpt lat="48.69934" lon="1.73695">
        <ele>177.19999694824</ele>
        <time>2013-06-25T08:51:31.000Z</time>
      </trkpt>
      <trkpt lat="48.69949" lon="1.73699">
        <ele>177.60000610352</ele>
        <time>2013-06-25T08:51:36.000Z</time>
      </trkpt>
      <trkpt lat="48.69967" lon="1.737">
        <ele>177.80000305176</ele>
        <time>2013-06-25T08:51:42.000Z</time>
      </trkpt>
      <trkpt lat="48.69981" lon="1.737">
        <ele>178.19999694824</ele>
        <time>2013-06-25T08:51:47.000Z</time>
      </trkpt>
      <trkpt lat="48.7" lon="1.73701">
        <ele>178.39999389648</ele>
        <time>2013-06-25T08:51:52.000Z</time>
      </trkpt>
      <trkpt lat="48.70017" lon="1.73706">
        <ele>178.19999694824</ele>
        <time>2013-06-25T08:51:57.000Z</time>
      </trkpt>
      <trkpt lat="48.70033" lon="1.73704">
        <ele>177.80000305176</ele>
        <time>2013-06-25T08:52:05.000Z</time>
      </trkpt>
      <trkpt lat="48.70042" lon="1.73704">
        <ele>177.60000610352</ele>
        <time>2013-06-25T08:52:11.000Z</time>
      </trkpt>
      <trkpt lat="48.70044" lon="1.73703">
        <ele>177.60000610352</ele>
        <time>2013-06-25T08:52:12.000Z</time>
      </trkpt>
      <trkpt lat="48.70051" lon="1.73706">
        <ele>177.39999389648</ele>
        <time>2013-06-25T08:52:17.000Z</time>
      </trkpt>
      <trkpt lat="48.70058" lon="1.73702">
        <ele>177.39999389648</ele>
        <time>2013-06-25T08:52:23.000Z</time>
      </trkpt>
      <trkpt lat="48.70062" lon="1.73705">
        <ele>177.19999694824</ele>
        <time>2013-06-25T08:52:26.000Z</time>
      </trkpt>
      <trkpt lat="48.70072" lon="1.73708">
        <ele>177</ele>
        <time>2013-06-25T08:52:32.000Z</time>
      </trkpt>
      <trkpt lat="48.70081" lon="1.7371">
        <ele>177</ele>
        <time>2013-06-25T08:52:38.000Z</time>
      </trkpt>
      <trkpt lat="48.70089" lon="1.7371">
        <ele>177</ele>
        <time>2013-06-25T08:52:43.000Z</time>
      </trkpt>
      <trkpt lat="48.70094" lon="1.7371">
        <ele>177</ele>
        <time>2013-06-25T08:52:47.000Z</time>
      </trkpt>
      <trkpt lat="48.70107" lon="1.73711">
        <ele>177.39999389648</ele>
        <time>2013-06-25T08:52:54.000Z</time>
      </trkpt>
      <trkpt lat="48.70122" lon="1.73713">
        <ele>177.60000610352</ele>
        <time>2013-06-25T08:52:59.000Z</time>
      </trkpt>
      <trkpt lat="48.70133" lon="1.73715">
        <ele>177.80000305176</ele>
        <time>2013-06-25T08:53:03.000Z</time>
      </trkpt>
      <trkpt lat="48.70151" lon="1.73717">
        <ele>178</ele>
        <time>2013-06-25T08:53:07.000Z</time>
      </trkpt>
      <trkpt lat="48.70169" lon="1.73721">
        <ele>178.19999694824</ele>
        <time>2013-06-25T08:53:11.000Z</time>
      </trkpt>
      <trkpt lat="48.70188" lon="1.73723">
        <ele>178.19999694824</ele>
        <time>2013-06-25T08:53:15.000Z</time>
      </trkpt>
      <trkpt lat="48.70206" lon="1.73724">
        <ele>178.39999389648</ele>
        <time>2013-06-25T08:53:19.000Z</time>
      </trkpt>
      <trkpt lat="48.70231" lon="1.73725">
        <ele>178.39999389648</ele>
        <time>2013-06-25T08:53:24.000Z</time>
      </trkpt>
      <trkpt lat="48.70242" lon="1.73726">
        <ele>178.39999389648</ele>
        <time>2013-06-25T08:53:26.000Z</time>
      </trkpt>
      <trkpt lat="48.70255" lon="1.73727">
        <ele>178.39999389648</ele>
        <time>2013-06-25T08:53:28.000Z</time>
      </trkpt>
      <trkpt lat="48.70287" lon="1.73731">
        <ele>178.60000610352</ele>
        <time>2013-06-25T08:53:34.000Z</time>
      </trkpt>
      <trkpt lat="48.70308" lon="1.7373">
        <ele>178.80000305176</ele>
        <time>2013-06-25T08:53:38.000Z</time>
      </trkpt>
      <trkpt lat="48.70328" lon="1.73734">
        <ele>178.80000305176</ele>
        <time>2013-06-25T08:53:42.000Z</time>
      </trkpt>
      <trkpt lat="48.70356" lon="1.73737">
        <ele>179.19999694824</ele>
        <time>2013-06-25T08:53:47.000Z</time>
      </trkpt>
      <trkpt lat="48.70374" lon="1.73738">
        <ele>179.39999389648</ele>
        <time>2013-06-25T08:53:51.000Z</time>
      </trkpt>
      <trkpt lat="48.70394" lon="1.7374">
        <ele>179.60000610352</ele>
        <time>2013-06-25T08:53:56.000Z</time>
      </trkpt>
      <trkpt lat="48.70411" lon="1.73738">
        <ele>179.80000305176</ele>
        <time>2013-06-25T08:54:01.000Z</time>
      </trkpt>
      <trkpt lat="48.70421" lon="1.7374">
        <ele>180</ele>
        <time>2013-06-25T08:54:05.000Z</time>
      </trkpt>
      <trkpt lat="48.70431" lon="1.73742">
        <ele>180</ele>
        <time>2013-06-25T08:54:10.000Z</time>
      </trkpt>
      <trkpt lat="48.70431" lon="1.73742">
        <ele>180</ele>
        <time>2013-06-25T08:54:11.000Z</time>
      </trkpt>
      <trkpt lat="48.70431" lon="1.73737">
        <ele>180</ele>
        <time>2013-06-25T08:54:15.000Z</time>
      </trkpt>
      <trkpt lat="48.70431" lon="1.73741">
        <ele>180</ele>
        <time>2013-06-25T08:54:16.000Z</time>
      </trkpt>
      <trkpt lat="48.7043" lon="1.73746">
        <ele>180</ele>
        <time>2013-06-25T08:54:21.000Z</time>
      </trkpt>
      <trkpt lat="48.70437" lon="1.73747">
        <ele>180</ele>
        <time>2013-06-25T08:54:27.000Z</time>
      </trkpt>
      <trkpt lat="48.70437" lon="1.73749">
        <ele>180</ele>
        <time>2013-06-25T08:54:31.000Z</time>
      </trkpt>
      <trkpt lat="48.70446" lon="1.73742">
        <ele>180</ele>
        <time>2013-06-25T08:54:45.000Z</time>
      </trkpt>
      <trkpt lat="48.70452" lon="1.73745">
        <ele>180</ele>
        <time>2013-06-25T08:54:47.000Z</time>
      </trkpt>
      <trkpt lat="48.70456" lon="1.73744">
        <ele>180</ele>
        <time>2013-06-25T08:54:51.000Z</time>
      </trkpt>
      <trkpt lat="48.70465" lon="1.73747">
        <ele>180</ele>
        <time>2013-06-25T08:54:58.000Z</time>
      </trkpt>
      <trkpt lat="48.70479" lon="1.73749">
        <ele>180</ele>
        <time>2013-06-25T08:55:06.000Z</time>
      </trkpt>
      <trkpt lat="48.70491" lon="1.73747">
        <ele>180</ele>
        <time>2013-06-25T08:55:13.000Z</time>
      </trkpt>
      <trkpt lat="48.70498" lon="1.73749">
        <ele>180</ele>
        <time>2013-06-25T08:55:19.000Z</time>
      </trkpt>
      <trkpt lat="48.70508" lon="1.73753">
        <ele>179.39999389648</ele>
        <time>2013-06-25T08:55:26.000Z</time>
      </trkpt>
      <trkpt lat="48.70525" lon="1.73757">
        <ele>178.39999389648</ele>
        <time>2013-06-25T08:55:31.000Z</time>
      </trkpt>
      <trkpt lat="48.70545" lon="1.73759">
        <ele>177.19999694824</ele>
        <time>2013-06-25T08:55:36.000Z</time>
      </trkpt>
      <trkpt lat="48.70568" lon="1.73763">
        <ele>175.80000305176</ele>
        <time>2013-06-25T08:55:41.000Z</time>
      </trkpt>
      <trkpt lat="48.70579" lon="1.73764">
        <ele>175.19999694824</ele>
        <time>2013-06-25T08:55:43.000Z</time>
      </trkpt>
      <trkpt lat="48.70601" lon="1.73764">
        <ele>175.60000610352</ele>
        <time>2013-06-25T08:55:47.000Z</time>
      </trkpt>
      <trkpt lat="48.70622" lon="1.73767">
        <ele>176.19999694824</ele>
        <time>2013-06-25T08:55:51.000Z</time>
      </trkpt>
      <trkpt lat="48.70638" lon="1.73768">
        <ele>176.80000305176</ele>
        <time>2013-06-25T08:55:54.000Z</time>
      </trkpt>
      <trkpt lat="48.70659" lon="1.73769">
        <ele>177.39999389648</ele>
        <time>2013-06-25T08:55:58.000Z</time>
      </trkpt>
      <trkpt lat="48.70692" lon="1.73773">
        <ele>178.60000610352</ele>
        <time>2013-06-25T08:56:04.000Z</time>
      </trkpt>
      <trkpt lat="48.70721" lon="1.73777">
        <ele>179.80000305176</ele>
        <time>2013-06-25T08:56:09.000Z</time>
      </trkpt>
      <trkpt lat="48.70726" lon="1.73778">
        <ele>180</ele>
        <time>2013-06-25T08:56:10.000Z</time>
      </trkpt>
      <trkpt lat="48.7075" lon="1.73778">
        <ele>181.19999694824</ele>
        <time>2013-06-25T08:56:14.000Z</time>
      </trkpt>
      <trkpt lat="48.70786" lon="1.73784">
        <ele>179.80000305176</ele>
        <time>2013-06-25T08:56:21.000Z</time>
      </trkpt>
      <trkpt lat="48.70816" lon="1.73787">
        <ele>178.60000610352</ele>
        <time>2013-06-25T08:56:27.000Z</time>
      </trkpt>
      <trkpt lat="48.70821" lon="1.73787">
        <ele>178.39999389648</ele>
        <time>2013-06-25T08:56:28.000Z</time>
      </trkpt>
      <trkpt lat="48.70852" lon="1.73789">
        <ele>178</ele>
        <time>2013-06-25T08:56:34.000Z</time>
      </trkpt>
      <trkpt lat="48.70873" lon="1.7379">
        <ele>178.19999694824</ele>
        <time>2013-06-25T08:56:38.000Z</time>
      </trkpt>
      <trkpt lat="48.70884" lon="1.73792">
        <ele>178.19999694824</ele>
        <time>2013-06-25T08:56:41.000Z</time>
      </trkpt>
      <trkpt lat="48.70896" lon="1.73794">
        <ele>178.39999389648</ele>
        <time>2013-06-25T08:56:44.000Z</time>
      </trkpt>
      <trkpt lat="48.70916" lon="1.73793">
        <ele>178.39999389648</ele>
        <time>2013-06-25T08:56:50.000Z</time>
      </trkpt>
      <trkpt lat="48.70932" lon="1.73794">
        <ele>179.19999694824</ele>
        <time>2013-06-25T08:56:56.000Z</time>
      </trkpt>
      <trkpt lat="48.70933" lon="1.73793">
        <ele>179.19999694824</ele>
        <time>2013-06-25T08:56:57.000Z</time>
      </trkpt>
      <trkpt lat="48.70941" lon="1.73794">
        <ele>179.39999389648</ele>
        <time>2013-06-25T08:57:03.000Z</time>
      </trkpt>
      <trkpt lat="48.70945" lon="1.73794">
        <ele>179.60000610352</ele>
        <time>2013-06-25T08:57:06.000Z</time>
      </trkpt>
      <trkpt lat="48.70956" lon="1.73795">
        <ele>180.19999694824</ele>
        <time>2013-06-25T08:57:11.000Z</time>
      </trkpt>
      <trkpt lat="48.70965" lon="1.73797">
        <ele>180.60000610352</ele>
        <time>2013-06-25T08:57:17.000Z</time>
      </trkpt>
      <trkpt lat="48.70976" lon="1.73799">
        <ele>181.19999694824</ele>
        <time>2013-06-25T08:57:24.000Z</time>
      </trkpt>
      <trkpt lat="48.70984" lon="1.738">
        <ele>181.39999389648</ele>
        <time>2013-06-25T08:57:28.000Z</time>
      </trkpt>
      <trkpt lat="48.70987" lon="1.738">
        <ele>181.60000610352</ele>
        <time>2013-06-25T08:57:30.000Z</time>
      </trkpt>
      <trkpt lat="48.70992" lon="1.738">
        <ele>181.80000305176</ele>
        <time>2013-06-25T08:57:36.000Z</time>
      </trkpt>
      <trkpt lat="48.70998" lon="1.738">
        <ele>182</ele>
        <time>2013-06-25T08:57:41.000Z</time>
      </trkpt>
      <trkpt lat="48.71009" lon="1.73799">
        <ele>182</ele>
        <time>2013-06-25T08:57:46.000Z</time>
      </trkpt>
      <trkpt lat="48.71022" lon="1.73802">
        <ele>182.19999694824</ele>
        <time>2013-06-25T08:57:52.000Z</time>
      </trkpt>
      <trkpt lat="48.71032" lon="1.73802">
        <ele>182.19999694824</ele>
        <time>2013-06-25T08:57:57.000Z</time>
      </trkpt>
      <trkpt lat="48.71039" lon="1.73802">
        <ele>182.19999694824</ele>
        <time>2013-06-25T08:58:01.000Z</time>
      </trkpt>
      <trkpt lat="48.71041" lon="1.73803">
        <ele>182.19999694824</ele>
        <time>2013-06-25T08:58:03.000Z</time>
      </trkpt>
      <trkpt lat="48.7105" lon="1.73803">
        <ele>182.19999694824</ele>
        <time>2013-06-25T08:58:09.000Z</time>
      </trkpt>
      <trkpt lat="48.71061" lon="1.73804">
        <ele>182.19999694824</ele>
        <time>2013-06-25T08:58:16.000Z</time>
      </trkpt>
      <trkpt lat="48.7107" lon="1.73808">
        <ele>182.19999694824</ele>
        <time>2013-06-25T08:58:21.000Z</time>
      </trkpt>
      <trkpt lat="48.71076" lon="1.73808">
        <ele>182.19999694824</ele>
        <time>2013-06-25T08:58:24.000Z</time>
      </trkpt>
      <trkpt lat="48.71078" lon="1.73808">
        <ele>182.19999694824</ele>
        <time>2013-06-25T08:58:26.000Z</time>
      </trkpt>
      <trkpt lat="48.71085" lon="1.73808">
        <ele>182.19999694824</ele>
        <time>2013-06-25T08:58:31.000Z</time>
      </trkpt>
      <trkpt lat="48.71089" lon="1.73809">
        <ele>182.19999694824</ele>
        <time>2013-06-25T08:58:33.000Z</time>
      </trkpt>
      <trkpt lat="48.71099" lon="1.73811">
        <ele>182.39999389648</ele>
        <time>2013-06-25T08:58:40.000Z</time>
      </trkpt>
      <trkpt lat="48.71109" lon="1.73813">
        <ele>182.39999389648</ele>
        <time>2013-06-25T08:58:47.000Z</time>
      </trkpt>
      <trkpt lat="48.71115" lon="1.73814">
        <ele>182.60000610352</ele>
        <time>2013-06-25T08:58:53.000Z</time>
      </trkpt>
      <trkpt lat="48.71123" lon="1.73814">
        <ele>182.60000610352</ele>
        <time>2013-06-25T08:58:59.000Z</time>
      </trkpt>
      <trkpt lat="48.71132" lon="1.73814">
        <ele>182.80000305176</ele>
        <time>2013-06-25T08:59:04.000Z</time>
      </trkpt>
      <trkpt lat="48.71138" lon="1.73815">
        <ele>182.80000305176</ele>
        <time>2013-06-25T08:59:07.000Z</time>
      </trkpt>
      <trkpt lat="48.71152" lon="1.73817">
        <ele>183</ele>
        <time>2013-06-25T08:59:14.000Z</time>
      </trkpt>
      <trkpt lat="48.71163" lon="1.73818">
        <ele>183</ele>
        <time>2013-06-25T08:59:21.000Z</time>
      </trkpt>
      <trkpt lat="48.71173" lon="1.73818">
        <ele>183.19999694824</ele>
        <time>2013-06-25T08:59:27.000Z</time>
      </trkpt>
      <trkpt lat="48.71182" lon="1.73821">
        <ele>183.19999694824</ele>
        <time>2013-06-25T08:59:33.000Z</time>
      </trkpt>
      <trkpt lat="48.71185" lon="1.73822">
        <ele>183.19999694824</ele>
        <time>2013-06-25T08:59:35.000Z</time>
      </trkpt>
      <trkpt lat="48.71196" lon="1.73824">
        <ele>183.19999694824</ele>
        <time>2013-06-25T08:59:43.000Z</time>
      </trkpt>
      <trkpt lat="48.71207" lon="1.73825">
        <ele>183.39999389648</ele>
        <time>2013-06-25T08:59:49.000Z</time>
      </trkpt>
      <trkpt lat="48.71214" lon="1.73825">
        <ele>183.39999389648</ele>
        <time>2013-06-25T08:59:54.000Z</time>
      </trkpt>
      <trkpt lat="48.71223" lon="1.73827">
        <ele>183.60000610352</ele>
        <time>2013-06-25T09:00:00.000Z</time>
      </trkpt>
      <trkpt lat="48.71234" lon="1.73828">
        <ele>183.60000610352</ele>
        <time>2013-06-25T09:00:06.000Z</time>
      </trkpt>
      <trkpt lat="48.71246" lon="1.73829">
        <ele>183.80000305176</ele>
        <time>2013-06-25T09:00:13.000Z</time>
      </trkpt>
      <trkpt lat="48.71257" lon="1.73832">
        <ele>183.19999694824</ele>
        <time>2013-06-25T09:00:20.000Z</time>
      </trkpt>
      <trkpt lat="48.71271" lon="1.7383">
        <ele>182</ele>
        <time>2013-06-25T09:00:29.000Z</time>
      </trkpt>
      <trkpt lat="48.71276" lon="1.73832">
        <ele>181.60000610352</ele>
        <time>2013-06-25T09:00:32.000Z</time>
      </trkpt>
      <trkpt lat="48.71283" lon="1.73842">
        <ele>181.19999694824</ele>
        <time>2013-06-25T09:00:38.000Z</time>
      </trkpt>
      <trkpt lat="48.71288" lon="1.73855">
        <ele>181</ele>
        <time>2013-06-25T09:00:45.000Z</time>
      </trkpt>
      <trkpt lat="48.7129" lon="1.73857">
        <ele>181</ele>
        <time>2013-06-25T09:00:47.000Z</time>
      </trkpt>
      <trkpt lat="48.71293" lon="1.73873">
        <ele>181</ele>
        <time>2013-06-25T09:00:55.000Z</time>
      </trkpt>
      <trkpt lat="48.713" lon="1.73886">
        <ele>180.80000305176</ele>
        <time>2013-06-25T09:01:02.000Z</time>
      </trkpt>
      <trkpt lat="48.71304" lon="1.73894">
        <ele>180.80000305176</ele>
        <time>2013-06-25T09:01:05.000Z</time>
      </trkpt>
      <trkpt lat="48.71306" lon="1.73906">
        <ele>181</ele>
        <time>2013-06-25T09:01:10.000Z</time>
      </trkpt>
      <trkpt lat="48.71312" lon="1.73924">
        <ele>180.80000305176</ele>
        <time>2013-06-25T09:01:18.000Z</time>
      </trkpt>
      <trkpt lat="48.71319" lon="1.7394">
        <ele>180.19999694824</ele>
        <time>2013-06-25T09:01:26.000Z</time>
      </trkpt>
      <trkpt lat="48.71323" lon="1.73955">
        <ele>179.80000305176</ele>
        <time>2013-06-25T09:01:33.000Z</time>
      </trkpt>
      <trkpt lat="48.71325" lon="1.7396">
        <ele>179.60000610352</ele>
        <time>2013-06-25T09:01:35.000Z</time>
      </trkpt>
      <trkpt lat="48.71329" lon="1.73975">
        <ele>179.39999389648</ele>
        <time>2013-06-25T09:01:42.000Z</time>
      </trkpt>
      <trkpt lat="48.71329" lon="1.73978">
        <ele>179.19999694824</ele>
        <time>2013-06-25T09:01:43.000Z</time>
      </trkpt>
      <trkpt lat="48.71331" lon="1.73992">
        <ele>179</ele>
        <time>2013-06-25T09:01:50.000Z</time>
      </trkpt>
      <trkpt lat="48.71332" lon="1.73998">
        <ele>179</ele>
        <time>2013-06-25T09:01:53.000Z</time>
      </trkpt>
      <trkpt lat="48.71336" lon="1.74011">
        <ele>178.60000610352</ele>
        <time>2013-06-25T09:01:59.000Z</time>
      </trkpt>
      <trkpt lat="48.71341" lon="1.7402">
        <ele>178.19999694824</ele>
        <time>2013-06-25T09:02:03.000Z</time>
      </trkpt>
      <trkpt lat="48.71345" lon="1.74034">
        <ele>178</ele>
        <time>2013-06-25T09:02:10.000Z</time>
      </trkpt>
      <trkpt lat="48.71351" lon="1.74047">
        <ele>178</ele>
        <time>2013-06-25T09:02:16.000Z</time>
      </trkpt>
      <trkpt lat="48.71352" lon="1.74051">
        <ele>178</ele>
        <time>2013-06-25T09:02:18.000Z</time>
      </trkpt>
      <trkpt lat="48.71361" lon="1.74063">
        <ele>178.19999694824</ele>
        <time>2013-06-25T09:02:25.000Z</time>
      </trkpt>
      <trkpt lat="48.71364" lon="1.74075">
        <ele>178.19999694824</ele>
        <time>2013-06-25T09:02:30.000Z</time>
      </trkpt>
      <trkpt lat="48.71365" lon="1.74087">
        <ele>178</ele>
        <time>2013-06-25T09:02:37.000Z</time>
      </trkpt>
      <trkpt lat="48.71364" lon="1.7409">
        <ele>178</ele>
        <time>2013-06-25T09:02:39.000Z</time>
      </trkpt>
      <trkpt lat="48.71365" lon="1.74101">
        <ele>177.60000610352</ele>
        <time>2013-06-25T09:02:44.000Z</time>
      </trkpt>
      <trkpt lat="48.71367" lon="1.74109">
        <ele>177.60000610352</ele>
        <time>2013-06-25T09:02:48.000Z</time>
      </trkpt>
      <trkpt lat="48.7137" lon="1.74122">
        <ele>177.39999389648</ele>
        <time>2013-06-25T09:02:54.000Z</time>
      </trkpt>
      <trkpt lat="48.71372" lon="1.74138">
        <ele>177.19999694824</ele>
        <time>2013-06-25T09:03:00.000Z</time>
      </trkpt>
      <trkpt lat="48.71373" lon="1.7415">
        <ele>177.19999694824</ele>
        <time>2013-06-25T09:03:06.000Z</time>
      </trkpt>
      <trkpt lat="48.71376" lon="1.74168">
        <ele>177</ele>
        <time>2013-06-25T09:03:13.000Z</time>
      </trkpt>
      <trkpt lat="48.7138" lon="1.74183">
        <ele>176.39999389648</ele>
        <time>2013-06-25T09:03:19.000Z</time>
      </trkpt>
      <trkpt lat="48.71384" lon="1.74201">
        <ele>175.60000610352</ele>
        <time>2013-06-25T09:03:27.000Z</time>
      </trkpt>
      <trkpt lat="48.71385" lon="1.74208">
        <ele>175.39999389648</ele>
        <time>2013-06-25T09:03:30.000Z</time>
      </trkpt>
      <trkpt lat="48.71383" lon="1.74218">
        <ele>174.60000610352</ele>
        <time>2013-06-25T09:03:35.000Z</time>
      </trkpt>
      <trkpt lat="48.71385" lon="1.74229">
        <ele>174</ele>
        <time>2013-06-25T09:03:40.000Z</time>
      </trkpt>
      <trkpt lat="48.71387" lon="1.74233">
        <ele>174</ele>
        <time>2013-06-25T09:03:42.000Z</time>
      </trkpt>
      <trkpt lat="48.71391" lon="1.74247">
        <ele>173.19999694824</ele>
        <time>2013-06-25T09:03:50.000Z</time>
      </trkpt>
      <trkpt lat="48.71396" lon="1.74266">
        <ele>172.19999694824</ele>
        <time>2013-06-25T09:03:57.000Z</time>
      </trkpt>
      <trkpt lat="48.71402" lon="1.7428">
        <ele>171.19999694824</ele>
        <time>2013-06-25T09:04:03.000Z</time>
      </trkpt>
      <trkpt lat="48.71405" lon="1.74292">
        <ele>170.19999694824</ele>
        <time>2013-06-25T09:04:08.000Z</time>
      </trkpt>
      <trkpt lat="48.71407" lon="1.74301">
        <ele>169.39999389648</ele>
        <time>2013-06-25T09:04:13.000Z</time>
      </trkpt>
      <trkpt lat="48.7141" lon="1.74312">
        <ele>168.39999389648</ele>
        <time>2013-06-25T09:04:18.000Z</time>
      </trkpt>
      <trkpt lat="48.71412" lon="1.74322">
        <ele>167.19999694824</ele>
        <time>2013-06-25T09:04:23.000Z</time>
      </trkpt>
      <trkpt lat="48.71415" lon="1.7434">
        <ele>165.60000610352</ele>
        <time>2013-06-25T09:04:31.000Z</time>
      </trkpt>
      <trkpt lat="48.71418" lon="1.7435">
        <ele>165</ele>
        <time>2013-06-25T09:04:37.000Z</time>
      </trkpt>
      <trkpt lat="48.71421" lon="1.74363">
        <ele>164.19999694824</ele>
        <time>2013-06-25T09:04:42.000Z</time>
      </trkpt>
      <trkpt lat="48.71426" lon="1.74375">
        <ele>163.60000610352</ele>
        <time>2013-06-25T09:04:47.000Z</time>
      </trkpt>
      <trkpt lat="48.71429" lon="1.74386">
        <ele>163.19999694824</ele>
        <time>2013-06-25T09:04:53.000Z</time>
      </trkpt>
      <trkpt lat="48.71431" lon="1.74396">
        <ele>162.60000610352</ele>
        <time>2013-06-25T09:05:00.000Z</time>
      </trkpt>
      <trkpt lat="48.71432" lon="1.74401">
        <ele>162.19999694824</ele>
        <time>2013-06-25T09:05:02.000Z</time>
      </trkpt>
      <trkpt lat="48.71436" lon="1.74412">
        <ele>161.60000610352</ele>
        <time>2013-06-25T09:05:08.000Z</time>
      </trkpt>
      <trkpt lat="48.71443" lon="1.74429">
        <ele>161.60000610352</ele>
        <time>2013-06-25T09:05:16.000Z</time>
      </trkpt>
      <trkpt lat="48.71445" lon="1.74435">
        <ele>161.60000610352</ele>
        <time>2013-06-25T09:05:19.000Z</time>
      </trkpt>
      <trkpt lat="48.71457" lon="1.74453">
        <ele>161.19999694824</ele>
        <time>2013-06-25T09:05:27.000Z</time>
      </trkpt>
      <trkpt lat="48.71467" lon="1.74466">
        <ele>160.60000610352</ele>
        <time>2013-06-25T09:05:33.000Z</time>
      </trkpt>
      <trkpt lat="48.71474" lon="1.74478">
        <ele>160</ele>
        <time>2013-06-25T09:05:40.000Z</time>
      </trkpt>
      <trkpt lat="48.71478" lon="1.7449">
        <ele>159.19999694824</ele>
        <time>2013-06-25T09:05:45.000Z</time>
      </trkpt>
      <trkpt lat="48.71485" lon="1.74504">
        <ele>158.19999694824</ele>
        <time>2013-06-25T09:05:51.000Z</time>
      </trkpt>
      <trkpt lat="48.7149" lon="1.74515">
        <ele>158</ele>
        <time>2013-06-25T09:05:56.000Z</time>
      </trkpt>
      <trkpt lat="48.71497" lon="1.74525">
        <ele>157.19999694824</ele>
        <time>2013-06-25T09:06:01.000Z</time>
      </trkpt>
      <trkpt lat="48.715" lon="1.7453">
        <ele>157</ele>
        <time>2013-06-25T09:06:04.000Z</time>
      </trkpt>
      <trkpt lat="48.715" lon="1.74537">
        <ele>157</ele>
        <time>2013-06-25T09:06:10.000Z</time>
      </trkpt>
      <trkpt lat="48.71507" lon="1.74541">
        <ele>157.19999694824</ele>
        <time>2013-06-25T09:06:17.000Z</time>
      </trkpt>
      <trkpt lat="48.71515" lon="1.74549">
        <ele>157.39999389648</ele>
        <time>2013-06-25T09:06:22.000Z</time>
      </trkpt>
      <trkpt lat="48.71522" lon="1.74565">
        <ele>157.19999694824</ele>
        <time>2013-06-25T09:06:28.000Z</time>
      </trkpt>
      <trkpt lat="48.7153" lon="1.74582">
        <ele>157</ele>
        <time>2013-06-25T09:06:35.000Z</time>
      </trkpt>
      <trkpt lat="48.71536" lon="1.74594">
        <ele>157</ele>
        <time>2013-06-25T09:06:40.000Z</time>
      </trkpt>
      <trkpt lat="48.71539" lon="1.74604">
        <ele>157</ele>
        <time>2013-06-25T09:06:44.000Z</time>
      </trkpt>
      <trkpt lat="48.71542" lon="1.74614">
        <ele>157</ele>
        <time>2013-06-25T09:06:48.000Z</time>
      </trkpt>
      <trkpt lat="48.71545" lon="1.74627">
        <ele>157</ele>
        <time>2013-06-25T09:06:54.000Z</time>
      </trkpt>
      <trkpt lat="48.71549" lon="1.74639">
        <ele>156.80000305176</ele>
        <time>2013-06-25T09:06:59.000Z</time>
      </trkpt>
      <trkpt lat="48.71556" lon="1.74652">
        <ele>156.39999389648</ele>
        <time>2013-06-25T09:07:05.000Z</time>
      </trkpt>
      <trkpt lat="48.71559" lon="1.7466">
        <ele>156</ele>
        <time>2013-06-25T09:07:08.000Z</time>
      </trkpt>
      <trkpt lat="48.71566" lon="1.74675">
        <ele>155.39999389648</ele>
        <time>2013-06-25T09:07:14.000Z</time>
      </trkpt>
      <trkpt lat="48.7157" lon="1.74693">
        <ele>155</ele>
        <time>2013-06-25T09:07:21.000Z</time>
      </trkpt>
      <trkpt lat="48.71574" lon="1.74704">
        <ele>154.39999389648</ele>
        <time>2013-06-25T09:07:26.000Z</time>
      </trkpt>
      <trkpt lat="48.71579" lon="1.74717">
        <ele>153.80000305176</ele>
        <time>2013-06-25T09:07:32.000Z</time>
      </trkpt>
      <trkpt lat="48.71582" lon="1.74725">
        <ele>153.39999389648</ele>
        <time>2013-06-25T09:07:36.000Z</time>
      </trkpt>
      <trkpt lat="48.71583" lon="1.74727">
        <ele>153.19999694824</ele>
        <time>2013-06-25T09:07:37.000Z</time>
      </trkpt>
      <trkpt lat="48.71591" lon="1.74743">
        <ele>152.60000610352</ele>
        <time>2013-06-25T09:07:44.000Z</time>
      </trkpt>
      <trkpt lat="48.71596" lon="1.74757">
        <ele>152.19999694824</ele>
        <time>2013-06-25T09:07:50.000Z</time>
      </trkpt>
      <trkpt lat="48.716" lon="1.74765">
        <ele>152</ele>
        <time>2013-06-25T09:07:54.000Z</time>
      </trkpt>
      <trkpt lat="48.71604" lon="1.74774">
        <ele>151.60000610352</ele>
        <time>2013-06-25T09:07:58.000Z</time>
      </trkpt>
      <trkpt lat="48.71611" lon="1.74792">
        <ele>151</ele>
        <time>2013-06-25T09:08:06.000Z</time>
      </trkpt>
      <trkpt lat="48.71614" lon="1.74806">
        <ele>150.80000305176</ele>
        <time>2013-06-25T09:08:12.000Z</time>
      </trkpt>
      <trkpt lat="48.71615" lon="1.74808">
        <ele>150.60000610352</ele>
        <time>2013-06-25T09:08:13.000Z</time>
      </trkpt>
      <trkpt lat="48.71618" lon="1.74819">
        <ele>150.39999389648</ele>
        <time>2013-06-25T09:08:18.000Z</time>
      </trkpt>
      <trkpt lat="48.71626" lon="1.74836">
        <ele>150</ele>
        <time>2013-06-25T09:08:26.000Z</time>
      </trkpt>
      <trkpt lat="48.71631" lon="1.74851">
        <ele>150.19999694824</ele>
        <time>2013-06-25T09:08:32.000Z</time>
      </trkpt>
      <trkpt lat="48.71641" lon="1.74872">
        <ele>150</ele>
        <time>2013-06-25T09:08:40.000Z</time>
      </trkpt>
      <trkpt lat="48.71647" lon="1.7489">
        <ele>150</ele>
        <time>2013-06-25T09:08:47.000Z</time>
      </trkpt>
      <trkpt lat="48.71655" lon="1.74906">
        <ele>149.60000610352</ele>
        <time>2013-06-25T09:08:54.000Z</time>
      </trkpt>
      <trkpt lat="48.71664" lon="1.74927">
        <ele>149</ele>
        <time>2013-06-25T09:09:03.000Z</time>
      </trkpt>
      <trkpt lat="48.7167" lon="1.74943">
        <ele>148.39999389648</ele>
        <time>2013-06-25T09:09:10.000Z</time>
      </trkpt>
      <trkpt lat="48.71677" lon="1.74961">
        <ele>147.80000305176</ele>
        <time>2013-06-25T09:09:18.000Z</time>
      </trkpt>
      <trkpt lat="48.71685" lon="1.7498">
        <ele>147.19999694824</ele>
        <time>2013-06-25T09:09:26.000Z</time>
      </trkpt>
      <trkpt lat="48.71691" lon="1.74994">
        <ele>146.80000305176</ele>
        <time>2013-06-25T09:09:32.000Z</time>
      </trkpt>
      <trkpt lat="48.71695" lon="1.75005">
        <ele>146.60000610352</ele>
        <time>2013-06-25T09:09:37.000Z</time>
      </trkpt>
      <trkpt lat="48.71699" lon="1.75017">
        <ele>146.19999694824</ele>
        <time>2013-06-25T09:09:42.000Z</time>
      </trkpt>
      <trkpt lat="48.71706" lon="1.75038">
        <ele>146</ele>
        <time>2013-06-25T09:09:50.000Z</time>
      </trkpt>
      <trkpt lat="48.71712" lon="1.75058">
        <ele>145.80000305176</ele>
        <time>2013-06-25T09:09:58.000Z</time>
      </trkpt>
      <trkpt lat="48.7172" lon="1.75079">
        <ele>145.80000305176</ele>
        <time>2013-06-25T09:10:07.000Z</time>
      </trkpt>
      <trkpt lat="48.71725" lon="1.75091">
        <ele>146</ele>
        <time>2013-06-25T09:10:12.000Z</time>
      </trkpt>
      <trkpt lat="48.7173" lon="1.75103">
        <ele>146.19999694824</ele>
        <time>2013-06-25T09:10:17.000Z</time>
      </trkpt>
      <trkpt lat="48.71735" lon="1.75119">
        <ele>146.19999694824</ele>
        <time>2013-06-25T09:10:24.000Z</time>
      </trkpt>
      <trkpt lat="48.71739" lon="1.75135">
        <ele>146.19999694824</ele>
        <time>2013-06-25T09:10:31.000Z</time>
      </trkpt>
      <trkpt lat="48.71744" lon="1.75148">
        <ele>146.19999694824</ele>
        <time>2013-06-25T09:10:37.000Z</time>
      </trkpt>
      <trkpt lat="48.7175" lon="1.75164">
        <ele>146</ele>
        <time>2013-06-25T09:10:44.000Z</time>
      </trkpt>
      <trkpt lat="48.71755" lon="1.75179">
        <ele>146</ele>
        <time>2013-06-25T09:10:51.000Z</time>
      </trkpt>
      <trkpt lat="48.71765" lon="1.75199">
        <ele>146</ele>
        <time>2013-06-25T09:10:59.000Z</time>
      </trkpt>
      <trkpt lat="48.71773" lon="1.75212">
        <ele>146</ele>
        <time>2013-06-25T09:11:05.000Z</time>
      </trkpt>
      <trkpt lat="48.71781" lon="1.75227">
        <ele>146</ele>
        <time>2013-06-25T09:11:12.000Z</time>
      </trkpt>
      <trkpt lat="48.71789" lon="1.75242">
        <ele>146</ele>
        <time>2013-06-25T09:11:19.000Z</time>
      </trkpt>
      <trkpt lat="48.71798" lon="1.75258">
        <ele>145.80000305176</ele>
        <time>2013-06-25T09:11:26.000Z</time>
      </trkpt>
      <trkpt lat="48.71804" lon="1.75277">
        <ele>145.39999389648</ele>
        <time>2013-06-25T09:11:34.000Z</time>
      </trkpt>
      <trkpt lat="48.71809" lon="1.75283">
        <ele>145.19999694824</ele>
        <time>2013-06-25T09:11:38.000Z</time>
      </trkpt>
      <trkpt lat="48.71816" lon="1.75294">
        <ele>144.80000305176</ele>
        <time>2013-06-25T09:11:43.000Z</time>
      </trkpt>
      <trkpt lat="48.71824" lon="1.75307">
        <ele>144.60000610352</ele>
        <time>2013-06-25T09:11:49.000Z</time>
      </trkpt>
      <trkpt lat="48.7183" lon="1.75318">
        <ele>144.19999694824</ele>
        <time>2013-06-25T09:11:54.000Z</time>
      </trkpt>
      <trkpt lat="48.71839" lon="1.75331">
        <ele>143.80000305176</ele>
        <time>2013-06-25T09:12:01.000Z</time>
      </trkpt>
      <trkpt lat="48.71843" lon="1.75339">
        <ele>143.80000305176</ele>
        <time>2013-06-25T09:12:05.000Z</time>
      </trkpt>
      <trkpt lat="48.71852" lon="1.75355">
        <ele>144.19999694824</ele>
        <time>2013-06-25T09:12:12.000Z</time>
      </trkpt>
      <trkpt lat="48.71857" lon="1.7537">
        <ele>144.39999389648</ele>
        <time>2013-06-25T09:12:19.000Z</time>
      </trkpt>
      <trkpt lat="48.7186" lon="1.75382">
        <ele>144.80000305176</ele>
        <time>2013-06-25T09:12:24.000Z</time>
      </trkpt>
      <trkpt lat="48.71863" lon="1.75398">
        <ele>145.19999694824</ele>
        <time>2013-06-25T09:12:30.000Z</time>
      </trkpt>
      <trkpt lat="48.71866" lon="1.75421">
        <ele>145.80000305176</ele>
        <time>2013-06-25T09:12:37.000Z</time>
      </trkpt>
      <trkpt lat="48.71871" lon="1.75439">
        <ele>147</ele>
        <time>2013-06-25T09:12:44.000Z</time>
      </trkpt>
      <trkpt lat="48.71875" lon="1.75459">
        <ele>148</ele>
        <time>2013-06-25T09:12:52.000Z</time>
      </trkpt>
      <trkpt lat="48.71874" lon="1.75477">
        <ele>148.80000305176</ele>
        <time>2013-06-25T09:12:59.000Z</time>
      </trkpt>
      <trkpt lat="48.71875" lon="1.75486">
        <ele>149.19999694824</ele>
        <time>2013-06-25T09:13:02.000Z</time>
      </trkpt>
      <trkpt lat="48.71875" lon="1.75498">
        <ele>149.80000305176</ele>
        <time>2013-06-25T09:13:07.000Z</time>
      </trkpt>
      <trkpt lat="48.71864" lon="1.75518">
        <ele>150.60000610352</ele>
        <time>2013-06-25T09:13:16.000Z</time>
      </trkpt>
      <trkpt lat="48.71857" lon="1.75534">
        <ele>151.39999389648</ele>
        <time>2013-06-25T09:13:23.000Z</time>
      </trkpt>
      <trkpt lat="48.7185" lon="1.75548">
        <ele>152.19999694824</ele>
        <time>2013-06-25T09:13:29.000Z</time>
      </trkpt>
      <trkpt lat="48.71847" lon="1.75553">
        <ele>152.60000610352</ele>
        <time>2013-06-25T09:13:31.000Z</time>
      </trkpt>
      <trkpt lat="48.71846" lon="1.75565">
        <ele>153</ele>
        <time>2013-06-25T09:13:36.000Z</time>
      </trkpt>
      <trkpt lat="48.71844" lon="1.7558">
        <ele>153.80000305176</ele>
        <time>2013-06-25T09:13:42.000Z</time>
      </trkpt>
      <trkpt lat="48.71843" lon="1.75594">
        <ele>154.39999389648</ele>
        <time>2013-06-25T09:13:47.000Z</time>
      </trkpt>
      <trkpt lat="48.71839" lon="1.75609">
        <ele>155.39999389648</ele>
        <time>2013-06-25T09:13:53.000Z</time>
      </trkpt>
      <trkpt lat="48.71838" lon="1.75625">
        <ele>156</ele>
        <time>2013-06-25T09:13:59.000Z</time>
      </trkpt>
      <trkpt lat="48.71836" lon="1.7564">
        <ele>156.80000305176</ele>
        <time>2013-06-25T09:14:05.000Z</time>
      </trkpt>
      <trkpt lat="48.71834" lon="1.75652">
        <ele>157.39999389648</ele>
        <time>2013-06-25T09:14:10.000Z</time>
      </trkpt>
      <trkpt lat="48.71832" lon="1.75665">
        <ele>158</ele>
        <time>2013-06-25T09:14:15.000Z</time>
      </trkpt>
      <trkpt lat="48.71833" lon="1.75685">
        <ele>158.19999694824</ele>
        <time>2013-06-25T09:14:21.000Z</time>
      </trkpt>
      <trkpt lat="48.71832" lon="1.757">
        <ele>158.39999389648</ele>
        <time>2013-06-25T09:14:26.000Z</time>
      </trkpt>
      <trkpt lat="48.71829" lon="1.75721">
        <ele>158.80000305176</ele>
        <time>2013-06-25T09:14:33.000Z</time>
      </trkpt>
      <trkpt lat="48.71824" lon="1.75735">
        <ele>159.19999694824</ele>
        <time>2013-06-25T09:14:39.000Z</time>
      </trkpt>
      <trkpt lat="48.71817" lon="1.75745">
        <ele>159.60000610352</ele>
        <time>2013-06-25T09:14:44.000Z</time>
      </trkpt>
      <trkpt lat="48.71812" lon="1.75757">
        <ele>160</ele>
        <time>2013-06-25T09:14:49.000Z</time>
      </trkpt>
      <trkpt lat="48.71808" lon="1.75771">
        <ele>160.60000610352</ele>
        <time>2013-06-25T09:14:55.000Z</time>
      </trkpt>
      <trkpt lat="48.71807" lon="1.75774">
        <ele>160.60000610352</ele>
        <time>2013-06-25T09:14:56.000Z</time>
      </trkpt>
      <trkpt lat="48.71803" lon="1.75785">
        <ele>161</ele>
        <time>2013-06-25T09:15:02.000Z</time>
      </trkpt>
      <trkpt lat="48.71802" lon="1.75788">
        <ele>161</ele>
        <time>2013-06-25T09:15:04.000Z</time>
      </trkpt>
      <trkpt lat="48.71798" lon="1.75806">
        <ele>161.19999694824</ele>
        <time>2013-06-25T09:15:11.000Z</time>
      </trkpt>
      <trkpt lat="48.71796" lon="1.75824">
        <ele>161.39999389648</ele>
        <time>2013-06-25T09:15:18.000Z</time>
      </trkpt>
      <trkpt lat="48.71796" lon="1.75836">
        <ele>161.60000610352</ele>
        <time>2013-06-25T09:15:22.000Z</time>
      </trkpt>
      <trkpt lat="48.71795" lon="1.75843">
        <ele>161.80000305176</ele>
        <time>2013-06-25T09:15:26.000Z</time>
      </trkpt>
      <trkpt lat="48.71791" lon="1.75858">
        <ele>162.19999694824</ele>
        <time>2013-06-25T09:15:32.000Z</time>
      </trkpt>
      <trkpt lat="48.71787" lon="1.75868">
        <ele>162.60000610352</ele>
        <time>2013-06-25T09:15:36.000Z</time>
      </trkpt>
      <trkpt lat="48.71785" lon="1.75876">
        <ele>162.60000610352</ele>
        <time>2013-06-25T09:15:39.000Z</time>
      </trkpt>
      <trkpt lat="48.71782" lon="1.75894">
        <ele>163.19999694824</ele>
        <time>2013-06-25T09:15:47.000Z</time>
      </trkpt>
      <trkpt lat="48.7178" lon="1.75904">
        <ele>163.60000610352</ele>
        <time>2013-06-25T09:15:52.000Z</time>
      </trkpt>
      <trkpt lat="48.71777" lon="1.75917">
        <ele>163.80000305176</ele>
        <time>2013-06-25T09:15:57.000Z</time>
      </trkpt>
      <trkpt lat="48.71776" lon="1.75927">
        <ele>163.60000610352</ele>
        <time>2013-06-25T09:16:01.000Z</time>
      </trkpt>
      <trkpt lat="48.71775" lon="1.75938">
        <ele>163.39999389648</ele>
        <time>2013-06-25T09:16:05.000Z</time>
      </trkpt>
      <trkpt lat="48.71771" lon="1.75953">
        <ele>162.80000305176</ele>
        <time>2013-06-25T09:16:12.000Z</time>
      </trkpt>
      <trkpt lat="48.71768" lon="1.75967">
        <ele>162.39999389648</ele>
        <time>2013-06-25T09:16:18.000Z</time>
      </trkpt>
      <trkpt lat="48.71766" lon="1.75972">
        <ele>162.19999694824</ele>
        <time>2013-06-25T09:16:20.000Z</time>
      </trkpt>
      <trkpt lat="48.71763" lon="1.75989">
        <ele>161.60000610352</ele>
        <time>2013-06-25T09:16:27.000Z</time>
      </trkpt>
      <trkpt lat="48.71758" lon="1.7601">
        <ele>161</ele>
        <time>2013-06-25T09:16:35.000Z</time>
      </trkpt>
      <trkpt lat="48.71754" lon="1.76025">
        <ele>160.80000305176</ele>
        <time>2013-06-25T09:16:41.000Z</time>
      </trkpt>
      <trkpt lat="48.7175" lon="1.7604">
        <ele>160.39999389648</ele>
        <time>2013-06-25T09:16:46.000Z</time>
      </trkpt>
      <trkpt lat="48.71745" lon="1.76057">
        <ele>160.19999694824</ele>
        <time>2013-06-25T09:16:53.000Z</time>
      </trkpt>
      <trkpt lat="48.71742" lon="1.76068">
        <ele>160</ele>
        <time>2013-06-25T09:16:58.000Z</time>
      </trkpt>
      <trkpt lat="48.71735" lon="1.76081">
        <ele>159.80000305176</ele>
        <time>2013-06-25T09:17:05.000Z</time>
      </trkpt>
      <trkpt lat="48.71727" lon="1.76075">
        <ele>159.80000305176</ele>
        <time>2013-06-25T09:17:11.000Z</time>
      </trkpt>
      <trkpt lat="48.71717" lon="1.76051">
        <ele>160</ele>
        <time>2013-06-25T09:17:22.000Z</time>
      </trkpt>
      <trkpt lat="48.71711" lon="1.76041">
        <ele>160.19999694824</ele>
        <time>2013-06-25T09:17:27.000Z</time>
      </trkpt>
      <trkpt lat="48.71707" lon="1.7603">
        <ele>160.39999389648</ele>
        <time>2013-06-25T09:17:31.000Z</time>
      </trkpt>
      <trkpt lat="48.71702" lon="1.76013">
        <ele>160.60000610352</ele>
        <time>2013-06-25T09:17:38.000Z</time>
      </trkpt>
      <trkpt lat="48.71695" lon="1.76">
        <ele>160.80000305176</ele>
        <time>2013-06-25T09:17:44.000Z</time>
      </trkpt>
      <trkpt lat="48.71689" lon="1.75987">
        <ele>161.39999389648</ele>
        <time>2013-06-25T09:17:50.000Z</time>
      </trkpt>
      <trkpt lat="48.7168" lon="1.75965">
        <ele>162.19999694824</ele>
        <time>2013-06-25T09:18:01.000Z</time>
      </trkpt>
      <trkpt lat="48.71675" lon="1.75953">
        <ele>162.60000610352</ele>
        <time>2013-06-25T09:18:07.000Z</time>
      </trkpt>
      <trkpt lat="48.7167" lon="1.75943">
        <ele>163</ele>
        <time>2013-06-25T09:18:12.000Z</time>
      </trkpt>
      <trkpt lat="48.71664" lon="1.75929">
        <ele>163.60000610352</ele>
        <time>2013-06-25T09:18:19.000Z</time>
      </trkpt>
      <trkpt lat="48.71659" lon="1.7592">
        <ele>164</ele>
        <time>2013-06-25T09:18:23.000Z</time>
      </trkpt>
      <trkpt lat="48.71654" lon="1.75911">
        <ele>164.60000610352</ele>
        <time>2013-06-25T09:18:28.000Z</time>
      </trkpt>
      <trkpt lat="48.71648" lon="1.75895">
        <ele>165.19999694824</ele>
        <time>2013-06-25T09:18:36.000Z</time>
      </trkpt>
      <trkpt lat="48.71641" lon="1.75881">
        <ele>166</ele>
        <time>2013-06-25T09:18:43.000Z</time>
      </trkpt>
      <trkpt lat="48.71632" lon="1.75859">
        <ele>167</ele>
        <time>2013-06-25T09:18:53.000Z</time>
      </trkpt>
      <trkpt lat="48.71624" lon="1.75843">
        <ele>167.60000610352</ele>
        <time>2013-06-25T09:19:01.000Z</time>
      </trkpt>
      <trkpt lat="48.71623" lon="1.7584">
        <ele>167.80000305176</ele>
        <time>2013-06-25T09:19:03.000Z</time>
      </trkpt>
      <trkpt lat="48.71621" lon="1.75836">
        <ele>168</ele>
        <time>2013-06-25T09:19:08.000Z</time>
      </trkpt>
      <trkpt lat="48.71611" lon="1.7582">
        <ele>168.80000305176</ele>
        <time>2013-06-25T09:19:42.000Z</time>
      </trkpt>
      <trkpt lat="48.71607" lon="1.75814">
        <ele>169</ele>
        <time>2013-06-25T09:19:46.000Z</time>
      </trkpt>
      <trkpt lat="48.71601" lon="1.75799">
        <ele>169.60000610352</ele>
        <time>2013-06-25T09:19:53.000Z</time>
      </trkpt>
      <trkpt lat="48.71595" lon="1.75783">
        <ele>170</ele>
        <time>2013-06-25T09:20:00.000Z</time>
      </trkpt>
      <trkpt lat="48.71594" lon="1.75781">
        <ele>170.19999694824</ele>
        <time>2013-06-25T09:20:01.000Z</time>
      </trkpt>
      <trkpt lat="48.7159" lon="1.75769">
        <ele>170.39999389648</ele>
        <time>2013-06-25T09:20:06.000Z</time>
      </trkpt>
      <trkpt lat="48.71586" lon="1.75757">
        <ele>170.80000305176</ele>
        <time>2013-06-25T09:20:12.000Z</time>
      </trkpt>
      <trkpt lat="48.71577" lon="1.7574">
        <ele>171</ele>
        <time>2013-06-25T09:20:20.000Z</time>
      </trkpt>
      <trkpt lat="48.71573" lon="1.75732">
        <ele>171.19999694824</ele>
        <time>2013-06-25T09:20:24.000Z</time>
      </trkpt>
      <trkpt lat="48.71568" lon="1.75726">
        <ele>171.19999694824</ele>
        <time>2013-06-25T09:20:28.000Z</time>
      </trkpt>
      <trkpt lat="48.7156" lon="1.7571">
        <ele>171.60000610352</ele>
        <time>2013-06-25T09:20:36.000Z</time>
      </trkpt>
      <trkpt lat="48.71553" lon="1.75697">
        <ele>172</ele>
        <time>2013-06-25T09:20:43.000Z</time>
      </trkpt>
      <trkpt lat="48.7155" lon="1.75691">
        <ele>172</ele>
        <time>2013-06-25T09:20:46.000Z</time>
      </trkpt>
      <trkpt lat="48.71547" lon="1.75681">
        <ele>172.39999389648</ele>
        <time>2013-06-25T09:20:50.000Z</time>
      </trkpt>
      <trkpt lat="48.71538" lon="1.75661">
        <ele>173</ele>
        <time>2013-06-25T09:20:58.000Z</time>
      </trkpt>
      <trkpt lat="48.71534" lon="1.7565">
        <ele>173.60000610352</ele>
        <time>2013-06-25T09:21:02.000Z</time>
      </trkpt>
      <trkpt lat="48.71528" lon="1.75634">
        <ele>174</ele>
        <time>2013-06-25T09:21:09.000Z</time>
      </trkpt>
      <trkpt lat="48.71522" lon="1.75625">
        <ele>174.39999389648</ele>
        <time>2013-06-25T09:21:14.000Z</time>
      </trkpt>
      <trkpt lat="48.71518" lon="1.75614">
        <ele>174.80000305176</ele>
        <time>2013-06-25T09:21:19.000Z</time>
      </trkpt>
      <trkpt lat="48.71511" lon="1.75597">
        <ele>175.39999389648</ele>
        <time>2013-06-25T09:21:27.000Z</time>
      </trkpt>
      <trkpt lat="48.71507" lon="1.75589">
        <ele>175.80000305176</ele>
        <time>2013-06-25T09:21:31.000Z</time>
      </trkpt>
      <trkpt lat="48.71506" lon="1.75584">
        <ele>175.80000305176</ele>
        <time>2013-06-25T09:21:33.000Z</time>
      </trkpt>
      <trkpt lat="48.715" lon="1.7557">
        <ele>176</ele>
        <time>2013-06-25T09:21:40.000Z</time>
      </trkpt>
      <trkpt lat="48.71491" lon="1.75552">
        <ele>176</ele>
        <time>2013-06-25T09:21:47.000Z</time>
      </trkpt>
      <trkpt lat="48.71489" lon="1.75544">
        <ele>176</ele>
        <time>2013-06-25T09:21:50.000Z</time>
      </trkpt>
      <trkpt lat="48.71486" lon="1.75535">
        <ele>175.80000305176</ele>
        <time>2013-06-25T09:21:54.000Z</time>
      </trkpt>
      <trkpt lat="48.71482" lon="1.7552">
        <ele>175.80000305176</ele>
        <time>2013-06-25T09:22:00.000Z</time>
      </trkpt>
      <trkpt lat="48.71476" lon="1.75501">
        <ele>175.80000305176</ele>
        <time>2013-06-25T09:22:08.000Z</time>
      </trkpt>
      <trkpt lat="48.71471" lon="1.75485">
        <ele>175.60000610352</ele>
        <time>2013-06-25T09:22:15.000Z</time>
      </trkpt>
      <trkpt lat="48.71465" lon="1.75467">
        <ele>175.39999389648</ele>
        <time>2013-06-25T09:22:23.000Z</time>
      </trkpt>
      <trkpt lat="48.71461" lon="1.75453">
        <ele>175.19999694824</ele>
        <time>2013-06-25T09:22:29.000Z</time>
      </trkpt>
      <trkpt lat="48.7146" lon="1.75449">
        <ele>175.19999694824</ele>
        <time>2013-06-25T09:22:31.000Z</time>
      </trkpt>
      <trkpt lat="48.71456" lon="1.75431">
        <ele>175.19999694824</ele>
        <time>2013-06-25T09:22:39.000Z</time>
      </trkpt>
      <trkpt lat="48.71451" lon="1.75411">
        <ele>175.19999694824</ele>
        <time>2013-06-25T09:22:47.000Z</time>
      </trkpt>
      <trkpt lat="48.71447" lon="1.75396">
        <ele>174.60000610352</ele>
        <time>2013-06-25T09:22:53.000Z</time>
      </trkpt>
      <trkpt lat="48.71445" lon="1.75391">
        <ele>174.60000610352</ele>
        <time>2013-06-25T09:22:55.000Z</time>
      </trkpt>
      <trkpt lat="48.71442" lon="1.75383">
        <ele>174.19999694824</ele>
        <time>2013-06-25T09:22:59.000Z</time>
      </trkpt>
      <trkpt lat="48.71439" lon="1.75372">
        <ele>173.80000305176</ele>
        <time>2013-06-25T09:23:04.000Z</time>
      </trkpt>
      <trkpt lat="48.71433" lon="1.7535">
        <ele>173</ele>
        <time>2013-06-25T09:23:13.000Z</time>
      </trkpt>
      <trkpt lat="48.71428" lon="1.75339">
        <ele>172.39999389648</ele>
        <time>2013-06-25T09:23:19.000Z</time>
      </trkpt>
      <trkpt lat="48.71425" lon="1.75325">
        <ele>172.39999389648</ele>
        <time>2013-06-25T09:23:25.000Z</time>
      </trkpt>
      <trkpt lat="48.71421" lon="1.75314">
        <ele>172.39999389648</ele>
        <time>2013-06-25T09:23:30.000Z</time>
      </trkpt>
      <trkpt lat="48.71417" lon="1.75303">
        <ele>172.60000610352</ele>
        <time>2013-06-25T09:23:35.000Z</time>
      </trkpt>
      <trkpt lat="48.71409" lon="1.75286">
        <ele>173.19999694824</ele>
        <time>2013-06-25T09:23:43.000Z</time>
      </trkpt>
      <trkpt lat="48.71404" lon="1.75277">
        <ele>173.39999389648</ele>
        <time>2013-06-25T09:23:47.000Z</time>
      </trkpt>
      <trkpt lat="48.71394" lon="1.75263">
        <ele>173.80000305176</ele>
        <time>2013-06-25T09:23:55.000Z</time>
      </trkpt>
      <trkpt lat="48.71384" lon="1.75251">
        <ele>174.19999694824</ele>
        <time>2013-06-25T09:24:03.000Z</time>
      </trkpt>
      <trkpt lat="48.71372" lon="1.75238">
        <ele>174.60000610352</ele>
        <time>2013-06-25T09:24:12.000Z</time>
      </trkpt>
      <trkpt lat="48.71358" lon="1.75231">
        <ele>175</ele>
        <time>2013-06-25T09:24:21.000Z</time>
      </trkpt>
      <trkpt lat="48.7135" lon="1.75222">
        <ele>175</ele>
        <time>2013-06-25T09:24:27.000Z</time>
      </trkpt>
      <trkpt lat="48.71339" lon="1.75213">
        <ele>175.39999389648</ele>
        <time>2013-06-25T09:24:35.000Z</time>
      </trkpt>
      <trkpt lat="48.71328" lon="1.75204">
        <ele>175.39999389648</ele>
        <time>2013-06-25T09:24:43.000Z</time>
      </trkpt>
      <trkpt lat="48.71318" lon="1.75195">
        <ele>175.39999389648</ele>
        <time>2013-06-25T09:24:50.000Z</time>
      </trkpt>
      <trkpt lat="48.71308" lon="1.75185">
        <ele>175.39999389648</ele>
        <time>2013-06-25T09:24:58.000Z</time>
      </trkpt>
      <trkpt lat="48.71291" lon="1.7517">
        <ele>175.39999389648</ele>
        <time>2013-06-25T09:25:09.000Z</time>
      </trkpt>
      <trkpt lat="48.71281" lon="1.7516">
        <ele>175.39999389648</ele>
        <time>2013-06-25T09:25:17.000Z</time>
      </trkpt>
      <trkpt lat="48.71273" lon="1.75153">
        <ele>175.60000610352</ele>
        <time>2013-06-25T09:25:22.000Z</time>
      </trkpt>
      <trkpt lat="48.71269" lon="1.75147">
        <ele>175.60000610352</ele>
        <time>2013-06-25T09:25:28.000Z</time>
      </trkpt>
      <trkpt lat="48.71261" lon="1.75137">
        <ele>175.80000305176</ele>
        <time>2013-06-25T09:25:35.000Z</time>
      </trkpt>
      <trkpt lat="48.71251" lon="1.75131">
        <ele>175.80000305176</ele>
        <time>2013-06-25T09:25:41.000Z</time>
      </trkpt>
      <trkpt lat="48.71245" lon="1.75126">
        <ele>175.80000305176</ele>
        <time>2013-06-25T09:25:47.000Z</time>
      </trkpt>
      <trkpt lat="48.71245" lon="1.75125">
        <ele>175.80000305176</ele>
        <time>2013-06-25T09:25:48.000Z</time>
      </trkpt>
      <trkpt lat="48.71238" lon="1.75119">
        <ele>176</ele>
        <time>2013-06-25T09:26:06.000Z</time>
      </trkpt>
      <trkpt lat="48.71227" lon="1.75107">
        <ele>176.19999694824</ele>
        <time>2013-06-25T09:26:14.000Z</time>
      </trkpt>
      <trkpt lat="48.71217" lon="1.75097">
        <ele>176.39999389648</ele>
        <time>2013-06-25T09:26:21.000Z</time>
      </trkpt>
      <trkpt lat="48.71208" lon="1.75086">
        <ele>176.39999389648</ele>
        <time>2013-06-25T09:26:28.000Z</time>
      </trkpt>
      <trkpt lat="48.71196" lon="1.75072">
        <ele>176.19999694824</ele>
        <time>2013-06-25T09:26:38.000Z</time>
      </trkpt>
      <trkpt lat="48.71189" lon="1.75058">
        <ele>176</ele>
        <time>2013-06-25T09:26:46.000Z</time>
      </trkpt>
      <trkpt lat="48.71181" lon="1.7505">
        <ele>176</ele>
        <time>2013-06-25T09:26:52.000Z</time>
      </trkpt>
      <trkpt lat="48.7118" lon="1.75049">
        <ele>176</ele>
        <time>2013-06-25T09:26:53.000Z</time>
      </trkpt>
      <trkpt lat="48.71174" lon="1.75043">
        <ele>176</ele>
        <time>2013-06-25T09:26:57.000Z</time>
      </trkpt>
      <trkpt lat="48.71159" lon="1.75027">
        <ele>176</ele>
        <time>2013-06-25T09:27:08.000Z</time>
      </trkpt>
      <trkpt lat="48.7115" lon="1.75016">
        <ele>176</ele>
        <time>2013-06-25T09:27:16.000Z</time>
      </trkpt>
      <trkpt lat="48.71138" lon="1.75002">
        <ele>176</ele>
        <time>2013-06-25T09:27:26.000Z</time>
      </trkpt>
      <trkpt lat="48.71129" lon="1.74984">
        <ele>175.80000305176</ele>
        <time>2013-06-25T09:27:36.000Z</time>
      </trkpt>
      <trkpt lat="48.71126" lon="1.74975">
        <ele>175.80000305176</ele>
        <time>2013-06-25T09:27:40.000Z</time>
      </trkpt>
      <trkpt lat="48.71121" lon="1.74969">
        <ele>175.80000305176</ele>
        <time>2013-06-25T09:27:44.000Z</time>
      </trkpt>
      <trkpt lat="48.71109" lon="1.74953">
        <ele>175.80000305176</ele>
        <time>2013-06-25T09:27:54.000Z</time>
      </trkpt>
      <trkpt lat="48.71096" lon="1.74939">
        <ele>175.80000305176</ele>
        <time>2013-06-25T09:28:04.000Z</time>
      </trkpt>
      <trkpt lat="48.71087" lon="1.74924">
        <ele>175.80000305176</ele>
        <time>2013-06-25T09:28:13.000Z</time>
      </trkpt>
      <trkpt lat="48.71077" lon="1.74913">
        <ele>176</ele>
        <time>2013-06-25T09:28:20.000Z</time>
      </trkpt>
      <trkpt lat="48.71067" lon="1.74903">
        <ele>176.19999694824</ele>
        <time>2013-06-25T09:28:27.000Z</time>
      </trkpt>
      <trkpt lat="48.71057" lon="1.7489">
        <ele>176.39999389648</ele>
        <time>2013-06-25T09:28:35.000Z</time>
      </trkpt>
      <trkpt lat="48.71045" lon="1.74878">
        <ele>176.80000305176</ele>
        <time>2013-06-25T09:28:44.000Z</time>
      </trkpt>
      <trkpt lat="48.71036" lon="1.74866">
        <ele>177</ele>
        <time>2013-06-25T09:28:52.000Z</time>
      </trkpt>
      <trkpt lat="48.71025" lon="1.74853">
        <ele>177.60000610352</ele>
        <time>2013-06-25T09:29:01.000Z</time>
      </trkpt>
      <trkpt lat="48.71018" lon="1.74848">
        <ele>178</ele>
        <time>2013-06-25T09:29:07.000Z</time>
      </trkpt>
      <trkpt lat="48.71007" lon="1.74859">
        <ele>178.60000610352</ele>
        <time>2013-06-25T09:29:15.000Z</time>
      </trkpt>
      <trkpt lat="48.71001" lon="1.7487">
        <ele>178.80000305176</ele>
        <time>2013-06-25T09:29:21.000Z</time>
      </trkpt>
      <trkpt lat="48.70994" lon="1.74877">
        <ele>178.80000305176</ele>
        <time>2013-06-25T09:29:26.000Z</time>
      </trkpt>
      <trkpt lat="48.70988" lon="1.74881">
        <ele>178.60000610352</ele>
        <time>2013-06-25T09:29:30.000Z</time>
      </trkpt>
      <trkpt lat="48.70983" lon="1.74889">
        <ele>178.19999694824</ele>
        <time>2013-06-25T09:29:34.000Z</time>
      </trkpt>
      <trkpt lat="48.70972" lon="1.74904">
        <ele>177.80000305176</ele>
        <time>2013-06-25T09:29:42.000Z</time>
      </trkpt>
      <trkpt lat="48.70962" lon="1.74916">
        <ele>177.19999694824</ele>
        <time>2013-06-25T09:29:49.000Z</time>
      </trkpt>
      <trkpt lat="48.70957" lon="1.74923">
        <ele>176.80000305176</ele>
        <time>2013-06-25T09:29:53.000Z</time>
      </trkpt>
      <trkpt lat="48.70954" lon="1.74926">
        <ele>176.60000610352</ele>
        <time>2013-06-25T09:29:55.000Z</time>
      </trkpt>
      <trkpt lat="48.70945" lon="1.74936">
        <ele>176.19999694824</ele>
        <time>2013-06-25T09:30:01.000Z</time>
      </trkpt>
      <trkpt lat="48.7094" lon="1.74944">
        <ele>176</ele>
        <time>2013-06-25T09:30:06.000Z</time>
      </trkpt>
      <trkpt lat="48.7093" lon="1.74962">
        <ele>175.39999389648</ele>
        <time>2013-06-25T09:30:15.000Z</time>
      </trkpt>
      <trkpt lat="48.7092" lon="1.7498">
        <ele>175</ele>
        <time>2013-06-25T09:30:25.000Z</time>
      </trkpt>
      <trkpt lat="48.70912" lon="1.74993">
        <ele>174.80000305176</ele>
        <time>2013-06-25T09:30:32.000Z</time>
      </trkpt>
      <trkpt lat="48.70909" lon="1.74999">
        <ele>174.80000305176</ele>
        <time>2013-06-25T09:30:35.000Z</time>
      </trkpt>
      <trkpt lat="48.70903" lon="1.7501">
        <ele>174.80000305176</ele>
        <time>2013-06-25T09:30:41.000Z</time>
      </trkpt>
      <trkpt lat="48.70896" lon="1.75029">
        <ele>174.60000610352</ele>
        <time>2013-06-25T09:30:50.000Z</time>
      </trkpt>
      <trkpt lat="48.7089" lon="1.75041">
        <ele>174.39999389648</ele>
        <time>2013-06-25T09:30:56.000Z</time>
      </trkpt>
      <trkpt lat="48.70884" lon="1.75054">
        <ele>174.19999694824</ele>
        <time>2013-06-25T09:31:03.000Z</time>
      </trkpt>
      <trkpt lat="48.70879" lon="1.75065">
        <ele>174.19999694824</ele>
        <time>2013-06-25T09:31:09.000Z</time>
      </trkpt>
      <trkpt lat="48.70878" lon="1.75067">
        <ele>174</ele>
        <time>2013-06-25T09:31:10.000Z</time>
      </trkpt>
      <trkpt lat="48.70874" lon="1.75078">
        <ele>174</ele>
        <time>2013-06-25T09:31:16.000Z</time>
      </trkpt>
      <trkpt lat="48.70871" lon="1.75084">
        <ele>174</ele>
        <time>2013-06-25T09:31:19.000Z</time>
      </trkpt>
      <trkpt lat="48.70862" lon="1.75104">
        <ele>174</ele>
        <time>2013-06-25T09:31:29.000Z</time>
      </trkpt>
      <trkpt lat="48.70853" lon="1.75124">
        <ele>174</ele>
        <time>2013-06-25T09:31:39.000Z</time>
      </trkpt>
      <trkpt lat="48.70847" lon="1.75137">
        <ele>174</ele>
        <time>2013-06-25T09:31:45.000Z</time>
      </trkpt>
      <trkpt lat="48.7084" lon="1.75151">
        <ele>174</ele>
        <time>2013-06-25T09:31:52.000Z</time>
      </trkpt>
      <trkpt lat="48.70831" lon="1.7517">
        <ele>173.80000305176</ele>
        <time>2013-06-25T09:32:01.000Z</time>
      </trkpt>
      <trkpt lat="48.70825" lon="1.75183">
        <ele>173.80000305176</ele>
        <time>2013-06-25T09:32:08.000Z</time>
      </trkpt>
      <trkpt lat="48.70817" lon="1.75199">
        <ele>173.80000305176</ele>
        <time>2013-06-25T09:32:16.000Z</time>
      </trkpt>
      <trkpt lat="48.70812" lon="1.75214">
        <ele>173.60000610352</ele>
        <time>2013-06-25T09:32:23.000Z</time>
      </trkpt>
      <trkpt lat="48.70806" lon="1.75225">
        <ele>173.60000610352</ele>
        <time>2013-06-25T09:32:29.000Z</time>
      </trkpt>
      <trkpt lat="48.70803" lon="1.75232">
        <ele>173.60000610352</ele>
        <time>2013-06-25T09:32:32.000Z</time>
      </trkpt>
      <trkpt lat="48.70798" lon="1.75242">
        <ele>173.39999389648</ele>
        <time>2013-06-25T09:32:37.000Z</time>
      </trkpt>
      <trkpt lat="48.70793" lon="1.75255">
        <ele>173.39999389648</ele>
        <time>2013-06-25T09:32:43.000Z</time>
      </trkpt>
      <trkpt lat="48.70791" lon="1.75266">
        <ele>173.39999389648</ele>
        <time>2013-06-25T09:32:48.000Z</time>
      </trkpt>
      <trkpt lat="48.70784" lon="1.7528">
        <ele>173.39999389648</ele>
        <time>2013-06-25T09:32:56.000Z</time>
      </trkpt>
      <trkpt lat="48.70776" lon="1.753">
        <ele>173.19999694824</ele>
        <time>2013-06-25T09:33:07.000Z</time>
      </trkpt>
      <trkpt lat="48.70772" lon="1.7531">
        <ele>173.19999694824</ele>
        <time>2013-06-25T09:33:12.000Z</time>
      </trkpt>
      <trkpt lat="48.70768" lon="1.75322">
        <ele>173.19999694824</ele>
        <time>2013-06-25T09:33:19.000Z</time>
      </trkpt>
      <trkpt lat="48.70767" lon="1.75322">
        <ele>173.19999694824</ele>
        <time>2013-06-25T09:33:22.000Z</time>
      </trkpt>
      <trkpt lat="48.70761" lon="1.75342">
        <ele>173</ele>
        <time>2013-06-25T09:34:27.000Z</time>
      </trkpt>
      <trkpt lat="48.70756" lon="1.75352">
        <ele>172.80000305176</ele>
        <time>2013-06-25T09:34:32.000Z</time>
      </trkpt>
      <trkpt lat="48.70753" lon="1.75365">
        <ele>172.60000610352</ele>
        <time>2013-06-25T09:34:38.000Z</time>
      </trkpt>
      <trkpt lat="48.70749" lon="1.75372">
        <ele>172.39999389648</ele>
        <time>2013-06-25T09:34:42.000Z</time>
      </trkpt>
      <trkpt lat="48.70748" lon="1.75374">
        <ele>172.39999389648</ele>
        <time>2013-06-25T09:34:44.000Z</time>
      </trkpt>
      <trkpt lat="48.70746" lon="1.75378">
        <ele>172.19999694824</ele>
        <time>2013-06-25T09:34:47.000Z</time>
      </trkpt>
      <trkpt lat="48.70744" lon="1.75386">
        <ele>172.19999694824</ele>
        <time>2013-06-25T09:34:52.000Z</time>
      </trkpt>
      <trkpt lat="48.70745" lon="1.75393">
        <ele>172.19999694824</ele>
        <time>2013-06-25T09:34:55.000Z</time>
      </trkpt>
      <trkpt lat="48.70743" lon="1.75398">
        <ele>172</ele>
        <time>2013-06-25T09:34:58.000Z</time>
      </trkpt>
      <trkpt lat="48.70739" lon="1.75406">
        <ele>171.80000305176</ele>
        <time>2013-06-25T09:35:03.000Z</time>
      </trkpt>
      <trkpt lat="48.70738" lon="1.75408">
        <ele>171.80000305176</ele>
        <time>2013-06-25T09:35:04.000Z</time>
      </trkpt>
      <trkpt lat="48.70733" lon="1.7542">
        <ele>171.60000610352</ele>
        <time>2013-06-25T09:35:10.000Z</time>
      </trkpt>
      <trkpt lat="48.70729" lon="1.75427">
        <ele>171.60000610352</ele>
        <time>2013-06-25T09:35:14.000Z</time>
      </trkpt>
      <trkpt lat="48.70726" lon="1.75429">
        <ele>171.60000610352</ele>
        <time>2013-06-25T09:35:17.000Z</time>
      </trkpt>
      <trkpt lat="48.70722" lon="1.7544">
        <ele>171.60000610352</ele>
        <time>2013-06-25T09:35:23.000Z</time>
      </trkpt>
      <trkpt lat="48.70717" lon="1.75453">
        <ele>171.60000610352</ele>
        <time>2013-06-25T09:35:31.000Z</time>
      </trkpt>
      <trkpt lat="48.70713" lon="1.75463">
        <ele>171.60000610352</ele>
        <time>2013-06-25T09:35:37.000Z</time>
      </trkpt>
      <trkpt lat="48.70707" lon="1.75474">
        <ele>171.80000305176</ele>
        <time>2013-06-25T09:35:44.000Z</time>
      </trkpt>
      <trkpt lat="48.70704" lon="1.7548">
        <ele>171.80000305176</ele>
        <time>2013-06-25T09:35:48.000Z</time>
      </trkpt>
      <trkpt lat="48.70701" lon="1.75486">
        <ele>172</ele>
        <time>2013-06-25T09:35:54.000Z</time>
      </trkpt>
      <trkpt lat="48.70697" lon="1.75482">
        <ele>172</ele>
        <time>2013-06-25T09:36:00.000Z</time>
      </trkpt>
      <trkpt lat="48.70697" lon="1.75481">
        <ele>172</ele>
        <time>2013-06-25T09:36:01.000Z</time>
      </trkpt>
      <trkpt lat="48.70699" lon="1.75489">
        <ele>172</ele>
        <time>2013-06-25T09:36:23.000Z</time>
      </trkpt>
      <trkpt lat="48.70697" lon="1.75492">
        <ele>172</ele>
        <time>2013-06-25T09:36:24.000Z</time>
      </trkpt>
      <trkpt lat="48.70696" lon="1.75491">
        <ele>172</ele>
        <time>2013-06-25T09:36:25.000Z</time>
      </trkpt>
    </trkseg>
  </trk>
</gpx>